Return to Metar
METAR CYNL 192200Z AUTO 09011G18KT 9SM CLR 14/01 A2985 RMK AO1 SLP118
METAR CYNL 192100Z AUTO 10011G17KT 9SM CLR 14/01 A2985 RMK AO1 SLP117
METAR CYNL 192000Z AUTO 08015G21KT 9SM CLR 14/00 A2986 RMK AO1 SLP120
METAR CYNL 191900Z AUTO 11014G21KT 9SM CLR 13/01 A2987 RMK AO1 SLP125
METAR CYNL 191800Z AUTO 10012G21KT 9SM FEW037 13/03 A2988 RMK AO1 SLP127
METAR CYNL 191700Z AUTO 11011G18KT 9SM CLR 12/04 A2990 RMK AO1 SLP132
METAR CYNL 191600Z AUTO 12011G17KT 9SM CLR 12/05 A2990 RMK AO1 SLP133
METAR CYNL 191500Z AUTO 10007KT 9SM CLR 09/07 A2990 RMK AO1 SLP134
METAR CYNL 191400Z AUTO 08006KT 9SM CLR 07/06 A2989 RMK AO1 SLP134
METAR CYNL 191300Z AUTO 06006KT 9SM CLR 03/03 A2989 RMK AO1 SLP136
METAR CYNL 191200Z AUTO 06003KT 9SM CLR 03/02 A2989 RMK AO1 SLP134
METAR CYNL 191100Z AUTO 07002KT 9SM CLR 03/03 A2989 RMK AO1 SLP130
METAR CYNL 191000Z AUTO 05003KT 9SM CLR 03/02 A2988 RMK AO1 SLP129
METAR CYNL 190900Z AUTO 04002KT 9SM CLR 03/02 A2988 RMK AO1 SLP128
METAR CYNL 190800Z AUTO 04002KT 9SM CLR 03/02 A2989 RMK AO1 SLP129
METAR CYNL 190700Z AUTO 06002KT 9SM CLR 04/03 A2989 RMK AO1 SLP129
METAR CYNL 190600Z AUTO 00000KT 9SM FEW140 06/03 A2989 RMK AO1 SLP129
METAR CYNL 190500Z AUTO 11003KT 9SM CLR 06/03 A2989 RMK AO1 SLP128
METAR CYNL 190400Z AUTO 08003KT 9SM BKN140 07/03 A2988 RMK AO1 SLP124
METAR CYNL 190300Z AUTO 07005KT 9SM BKN150 09/03 A2988 RMK AO1 SLP123
METAR CYNL 190200Z AUTO 08004KT 9SM SCT150 10/03 A2988 RMK AO1 SLP125
METAR CYNL 190100Z AUTO 09006KT 9SM SCT150 12/03 A2987 RMK AO1 SLP126
METAR CYNL 190000Z AUTO 11006KT 9SM CLR 14/02 A2987 RMK AO1 SLP124
METAR CYNL 182300Z AUTO 15004KT 9SM SCT058 14/01 A2987 RMK AO1 SLP125
METAR CYNL 182200Z AUTO 12005KT 090V150 9SM SCT052 14/02 A2987 RMK AO1 SLP127
METAR CYNL 182100Z AUTO 14006KT 9SM BKN050 15/03 A2988 RMK AO1 SLP127
METAR CYNL 182000Z AUTO 18006KT 9SM BKN052 14/02 A2989 RMK AO1 SLP130
METAR CYNL 181900Z AUTO 13005KT 090V170 9SM FEW048 14/02 A2990 RMK AO1 SLP134
METAR CYNL 181800Z AUTO 18004KT 9SM SCT041 13/03 A2990 RMK AO1 SLP136
METAR CYNL 181700Z AUTO 16005KT 9SM CLR 13/03 A2991 RMK AO1 SLP137
METAR CYNL 181600Z AUTO 14003KT 9SM FEW160 12/05 A2991 RMK AO1 SLP139
METAR CYNL 181500Z AUTO 00000KT 9SM CLR 10/05 A2992 RMK AO1 SLP141
METAR CYNL 181400Z AUTO 00000KT 9SM CLR 05/04 A2991 RMK AO1 SLP145
METAR CYNL 181300Z AUTO 05003KT 9SM CLR 01/00 A2990 RMK AO1 SLP146
METAR CYNL 181200Z AUTO 00000KT 9SM FEW086 01/01 A2991 RMK AO1 SLP143
METAR CYNL 181100Z AUTO 00000KT 9SM BKN088 01/01 A2991 RMK AO1 SLP142
SPECI CYNL 181040Z AUTO 00000KT 4SM FEW086 01/01 A2991 RMK AO1 SLP142
SPECI CYNL 181039Z AUTO 00000KT 1 1/2SM FEW086 SCT170 01/01 A2991 RMK AO1 SLP142
SPECI CYNL 181038Z AUTO 00000KT 3/4SM FEW086 SCT170 01/01 A2991 RMK AO1 SLP141
SPECI CYNL 181035Z AUTO 00000KT 5/8SM FEW086 SCT170 01/01 A2991 RMK AO1 SLP141
SPECI CYNL 181034Z AUTO 00000KT 1SM FEW086 SCT170 01/01 A2991 RMK AO1 SLP141
SPECI CYNL 181032Z AUTO 00000KT 1 3/4SM FEW086 SCT170 01/01 A2991 RMK AO1 SLP142
SPECI CYNL 181031Z AUTO 25002KT 2SM FEW086 SCT170 01/01 A2991 RMK AO1 SLP142
METAR CYNL 181000Z AUTO 00000KT 9SM CLR 02/01 A2991 RMK AO1 SLP141
METAR CYNL 180900Z AUTO 00000KT 9SM FEW210 03/02 A2992 RMK AO1 SLP142
METAR CYNL 180800Z AUTO 01003KT 9SM CLR 03/02 A2992 RMK AO1 SLP141
METAR CYNL 180700Z AUTO 00000KT 9SM CLR 03/02 A2992 RMK AO1 SLP142
METAR CYNL 180600Z AUTO 02002KT 9SM CLR 04/03 A2993 RMK AO1 SLP143
METAR CYNL 180500Z AUTO 00000KT 9SM BKN160 05/03 A2993 RMK AO1 SLP143
METAR CYNL 180400Z AUTO 00000KT 9SM BKN150 05/03 A2994 RMK AO1 SLP147
METAR CYNL 180300Z AUTO 07002KT 9SM BKN150 06/03 A2994 RMK AO1 SLP149
METAR CYNL 180200Z AUTO 08002KT 9SM CLR 06/03 A2994 RMK AO1 SLP153
METAR CYNL 180100Z AUTO 00000KT 9SM CLR 10/04 A2995 RMK AO1 SLP155
METAR CYNL 180000Z AUTO 15003KT 9SM CLR 12/03 A2995 RMK AO1 SLP157
METAR CYNL 172300Z AUTO 17003KT 9SM CLR 12/02 A2996 RMK AO1 SLP159
METAR CYNL 172200Z AUTO 18009KT 9SM CLR 14/01 A2997 RMK AO1 SLP159
METAR CYNL 172100Z AUTO 16007KT 9SM CLR 14/01 A2998 RMK AO1 SLP164
METAR CYNL 172000Z AUTO 16004KT 9SM CLR 14/01 A3000 RMK AO1 SLP170
METAR CYNL 171900Z AUTO 22003KT 9SM CLR 13/01 A3001 RMK AO1 PRESFR SLP177
METAR CYNL 171800Z AUTO 16005KT 9SM CLR 12/02 A3003 RMK AO1 SLP182
METAR CYNL 171700Z AUTO 18006KT 9SM CLR 12/01 A3005 RMK AO1 SLP187
METAR CYNL 171600Z AUTO 13003KT 9SM CLR 10/04 A3005 RMK AO1 SLP189
METAR CYNL 171500Z AUTO 00000KT 9SM CLR 08/04 A3007 RMK AO1 SLP194
METAR CYNL 171400Z AUTO 00000KT 9SM CLR 03/02 A3008 RMK AO1 SLP201
SPECI CYNL 171329Z AUTO 08003KT 8SM CLR 01/00 A3008 RMK AO1 SLP202
SPECI CYNL 171328Z AUTO 08003KT 2SM CLR 01/00 A3008 RMK AO1 SLP203
SPECI CYNL 171327Z AUTO 08003KT 1 3/4SM CLR 01/M00 A3008 RMK AO1 SLP203
SPECI CYNL 171326Z AUTO 08003KT 2 1/2SM CLR 01/M00 A3008 RMK AO1 SLP203
SPECI CYNL 171315Z AUTO 07003KT 4SM CLR 00/M00 A3008 RMK AO1 SLP203
SPECI CYNL 171313Z AUTO 07003KT 1 3/4SM CLR 00/M00 A3008 RMK AO1 SLP203
SPECI CYNL 171312Z AUTO 07003KT 2 1/2SM CLR 00/M00 A3008 RMK AO1 SLP203
METAR CYNL 171300Z AUTO 05002KT 9SM CLR 00/M01 A3008 RMK AO1 SLP204
METAR CYNL 171200Z AUTO 08002KT 9SM CLR 00/M01 A3009 RMK AO1 SLP205
METAR CYNL 171100Z AUTO 00000KT 9SM FEW230 01/00 A3010 RMK AO1 SLP206
METAR CYNL 171000Z AUTO 00000KT 9SM CLR 02/01 A3011 RMK AO1 SLP206
METAR CYNL 170900Z AUTO 08003KT 9SM FEW210 02/01 A3012 RMK AO1 SLP211
METAR CYNL 170800Z AUTO 07003KT 9SM SCT210 01/00 A3013 RMK AO1 SLP215
METAR CYNL 170700Z AUTO 00000KT 9SM CLR 02/01 A3014 RMK AO1 SLP218
METAR CYNL 170600Z AUTO 00000KT 9SM CLR 03/01 A3015 RMK AO1 SLP220
METAR CYNL 170500Z AUTO 00000KT 9SM CLR 04/02 A3016 RMK AO1 SLP223
METAR CYNL 170400Z AUTO 19003KT 9SM CLR 06/02 A3016 RMK AO1 SLP221
METAR CYNL 170300Z AUTO 21003KT 9SM CLR 08/02 A3016 RMK AO1 SLP223
METAR CYNL 170200Z AUTO 18003KT 9SM CLR 09/03 A3017 RMK AO1 SLP227
METAR CYNL 170100Z AUTO 18003KT 9SM CLR 12/02 A3017 RMK AO1 SLP229
METAR CYNL 170000Z AUTO 17006KT 9SM CLR 14/02 A3018 RMK AO1 SLP233
METAR CYNL 162300Z AUTO 20005KT 9SM CLR 15/00 A3019 RMK AO1 SLP238
METAR CYNL 162200Z AUTO 19005KT 160V230 9SM CLR 15/00 A3021 RMK AO1 SLP240
METAR CYNL 162100Z AUTO 24004KT 9SM CLR 15/00 A3022 RMK AO1 SLP247
METAR CYNL 162000Z AUTO 25004KT 9SM CLR 15/01 A3024 RMK AO1 SLP252
METAR CYNL 161900Z AUTO 23006KT 9SM CLR 14/01 A3025 RMK AO1 SLP257
METAR CYNL 161800Z AUTO 21007KT 9SM CLR 13/02 A3026 RMK AO1 SLP262
METAR CYNL 161700Z AUTO 21007KT 9SM CLR 13/03 A3027 RMK AO1 SLP264
METAR CYNL 161600Z AUTO 24008KT 9SM CLR 11/04 A3028 RMK AO1 SLP268
METAR CYNL 161500Z AUTO 22004KT 9SM CLR 08/05 A3028 RMK AO1 SLP272
METAR CYNL 161400Z AUTO 00000KT 9SM CLR 04/03 A3028 RMK AO1 SLP275
SPECI CYNL 161306Z AUTO 00000KT 3SM CLR 01/00 A3028 RMK AO1 SLP276
SPECI CYNL 161305Z AUTO 00000KT 1 1/4SM CLR 01/00 A3028 RMK AO1 SLP276
SPECI CYNL 161303Z AUTO 00000KT 1/2SM CLR 01/M00 A3028 RMK AO1 SLP276
SPECI CYNL 161302Z AUTO 00000KT 1SM CLR 01/M00 A3028 RMK AO1 SLP276
SPECI CYNL 161301Z AUTO 00000KT 2SM CLR 01/M00 A3028 RMK AO1 SLP276
METAR CYNL 161300Z AUTO 00000KT 7SM CLR 01/00 A3028 RMK AO1 SLP276
METAR CYNL 161200Z AUTO 00000KT 9SM CLR M00/M01 A3028 RMK AO1 SLP272
SPECI CYNL 161119Z AUTO 00000KT 4SM CLR 00/M00 A3028 RMK AO1 SLP270
SPECI CYNL 161118Z AUTO 00000KT 2SM CLR 00/M00 A3028 RMK AO1 SLP270
SPECI CYNL 161115Z AUTO 00000KT 1SM CLR 01/00 A3028 RMK AO1 SLP270
SPECI CYNL 161114Z AUTO 20002KT 1 1/2SM CLR 01/00 A3028 RMK AO1 SLP270
METAR CYNL 161100Z AUTO 00000KT 9SM CLR 01/00 A3028 RMK AO1 SLP270
METAR CYNL 161000Z AUTO 00000KT 9SM CLR 01/00 A3029 RMK AO1 SLP274
METAR CYNL 160900Z AUTO 15002KT 9SM CLR 01/00 A3030 RMK AO1 SLP276
METAR CYNL 160800Z AUTO 00000KT 9SM CLR 01/00 A3030 RMK AO1 SLP274
METAR CYNL 160700Z AUTO 00000KT 9SM CLR 01/01 A3030 RMK AO1 SLP276
METAR CYNL 160600Z AUTO 00000KT 9SM CLR 02/01 A3030 RMK AO1 SLP275
METAR CYNL 160500Z AUTO 00000KT 9SM CLR 01/00 A3029 RMK AO1 SLP275
METAR CYNL 160400Z AUTO 00000KT 9SM CLR 02/01 A3029 RMK AO1 SLP274
METAR CYNL 160300Z AUTO 00000KT 9SM CLR 03/02 A3029 RMK AO1 SLP271
METAR CYNL 160200Z AUTO 00000KT 9SM CLR 05/03 A3029 RMK AO1 SLP275
METAR CYNL 160100Z AUTO 00000KT 9SM CLR 09/02 A3030 RMK AO1 SLP275
METAR CYNL 160000Z AUTO 21006KT 9SM OVC044 11/01 A3029 RMK AO1 SLP272
METAR CYNL 152300Z AUTO 27003KT 9SM OVC043 11/01 A3030 RMK AO1 SLP275
METAR CYNL 152200Z AUTO 25006KT 9SM FEW047 10/00 A3030 RMK AO1 SLP276
METAR CYNL 152100Z AUTO 24006KT 190V290 9SM BKN045 12/01 A3030 RMK AO1 SLP275
METAR CYNL 152000Z AUTO 00000KT 9SM CLR 10/00 A3031 RMK AO1 SLP278
METAR CYNL 151900Z AUTO 29007KT 9SM SCT042 10/00 A3031 RMK AO1 SLP279
METAR CYNL 151800Z AUTO 31003KT 9SM BKN042 10/00 A3031 RMK AO1 SLP279
METAR CYNL 151700Z AUTO 35003KT 310V020 9SM SCT042 09/M00 A3030 RMK AO1 SLP277
METAR CYNL 151600Z AUTO 35003KT 9SM SCT045 09/04 A3030 RMK AO1 SLP275
METAR CYNL 151500Z AUTO 00000KT 9SM OVC045 06/04 A3029 RMK AO1 SLP275
METAR CYNL 151400Z AUTO 30003KT 9SM OVC046 03/03 A3028 RMK AO1 SLP273
METAR CYNL 151300Z AUTO 30002KT 9SM SCT049 03/02 A3027 RMK AO1 SLP269
METAR CYNL 151200Z AUTO 33005KT 9SM SCT049 02/01 A3025 RMK AO1 SLP264
METAR CYNL 151100Z AUTO 32005KT 9SM CLR 02/02 A3024 RMK AO1 SLP256
METAR CYNL 151000Z AUTO 00000KT 9SM CLR 02/02 A3022 RMK AO1 SLP251
METAR CYNL 150900Z AUTO 32003KT 9SM CLR 02/02 A3021 RMK AO1 SLP248
METAR CYNL 150800Z AUTO 32005KT 9SM CLR 03/03 A3020 RMK AO1 SLP244
METAR CYNL 150700Z AUTO 31005KT 9SM CLR 03/03 A3019 RMK AO1 SLP238
METAR CYNL 150600Z AUTO 32005KT 9SM CLR 03/03 A3018 RMK AO1 SLP236
METAR CYNL 150500Z AUTO 32005KT 9SM CLR 04/03 A3018 RMK AO1 SLP233
METAR CYNL 150400Z AUTO 33004KT 9SM FEW054 05/04 A3016 RMK AO1 SLP229
METAR CYNL 150300Z AUTO 31003KT 9SM BKN050 06/05 A3016 RMK AO1 SLP226
METAR CYNL 150200Z AUTO 30003KT 9SM SCT050 07/06 A3014 RMK AO1 SLP222
METAR CYNL 150100Z AUTO 31003KT 9SM FEW035 SCT045 07/05 A3014 RMK AO1 SLP219
SPECI CYNL 150025Z AUTO 00003KT 9SM FEW017 SCT023 BKN031 07/05 A3013 RMK AO1 SLP217
SPECI CYNL 150024Z AUTO 00003KT 9SM FEW017 BKN023 07/05 A3013 RMK AO1 SLP217
SPECI CYNL 150023Z AUTO 00003KT 9SM FEW016 SCT022 BKN030 07/05 A3013 RMK AO1 SLP216
SPECI CYNL 150009Z AUTO 01005KT 5SM BKN021 08/05 A3013 RMK AO1 SLP216
SPECI CYNL 150004Z AUTO 01004KT 6SM SCT022 BKN027 08/05 A3012 RMK AO1 SLP215
METAR CYNL 150000Z AUTO 03007KT 6SM SCT021 BKN044 08/04 A3012 RMK AO1 SLP214
METAR CYNL 142300Z AUTO 00004KT 9SM FEW021 SCT028 BKN038 09/05 A3011 RMK AO1 SLP208
METAR CYNL 142200Z AUTO 03003KT 9SM FEW066 08/05 A3010 RMK AO1 SLP208
SPECI CYNL 142137Z AUTO 05004KT 000V090 9SM FEW016 SCT022 07/05 A3010 RMK AO1 SLP208
SPECI CYNL 142136Z AUTO 04004KT 000V070 9SM FEW009 SCT022 BKN029 07/05 A3010 RMK AO1 SLP209
SPECI CYNL 142129Z AUTO 00004KT 6SM FEW007 BKN022 BKN029 07/05 A3011 RMK AO1 SLP210
SPECI CYNL 142128Z AUTO 01003KT 4SM VV021 07/06 A3011 RMK AO1 SLP210
SPECI CYNL 142127Z AUTO 01002KT 2 1/2SM VV021 07/05 A3011 RMK AO1 SLP210
SPECI CYNL 142123Z AUTO 00008KT 310V040 1 1/2SM FEW007 BKN022 07/05 A3011 RMK AO1 SLP210
SPECI CYNL 142120Z AUTO 01008KT 310V070 1 1/4SM FEW007 SCT016 BKN023 07/05 A3011 RMK AO1 SLP210
SPECI CYNL 142118Z AUTO 01007KT 310V080 1 3/4SM FEW007 SCT016 BKN023 07/06 A3011 RMK AO1 SLP210
SPECI CYNL 142114Z AUTO 04003KT 2 1/2SM VV023 08/05 A3010 RMK AO1 SLP209
SPECI CYNL 142113Z AUTO 06003KT 3SM VV023 08/05 A3010 RMK AO1 SLP208
SPECI CYNL 142112Z AUTO 07004KT 2 1/2SM VV021 08/05 A3010 RMK AO1 SLP208
SPECI CYNL 142107Z AUTO 09005KT 4SM VV016 08/05 A3010 RMK AO1 SLP207
METAR CYNL 142100Z AUTO 08007KT 6SM FEW007 SCT020 08/05 A3010 RMK AO1 SLP206
SPECI CYNL 142055Z AUTO 09007KT 6SM FEW007 SCT028 08/05 A3009 RMK AO1 SLP204
SPECI CYNL 142023Z AUTO 34009KT 270V060 9SM FEW017 SCT024 BKN039 08/04 A3009 RMK AO1 SLP204
SPECI CYNL 142018Z AUTO 33009KT 270V020 3SM VV017 08/04 A3009 RMK AO1 SLP204
SPECI CYNL 142017Z AUTO 33009KT 270V020 1 1/2SM VV018 08/03 A3009 RMK AO1 SLP204
SPECI CYNL 142014Z AUTO 35009KT 1/2SM VV021 09/06 A3009 RMK AO1 SLP203
SPECI CYNL 142013Z AUTO 01006KT 3/4SM FEW017 SCT025 09/06 A3009 RMK AO1 SLP203
SPECI CYNL 142011Z AUTO 01007KT 1 1/4SM SCT025 09/05 A3009 RMK AO1 SLP202
SPECI CYNL 142010Z AUTO 02007KT 2SM SCT024 10/05 A3009 RMK AO1 SLP201
METAR CYNL 142000Z AUTO 02006KT 350V060 9SM FEW028 10/05 A3009 RMK AO1 SLP200
SPECI CYNL 141907Z AUTO 02008KT 7SM SCT019 BKN041 08/05 A3009 RMK AO1 SLP202
SPECI CYNL 141906Z AUTO 01008KT 5SM SCT019 BKN026 08/06 A3009 RMK AO1 SLP202
METAR CYNL 141900Z AUTO 01011KT 9SM FEW018 SCT024 09/05 A3008 RMK AO1 SLP200
SPECI CYNL 141851Z AUTO 01007KT 9SM SCT024 09/05 A3008 RMK AO1 SLP199
SPECI CYNL 141848Z AUTO 35006KT 2 1/2SM SCT024 09/06 A3008 RMK AO1 SLP198
SPECI CYNL 141847Z AUTO 35006KT 1 1/2SM SCT024 09/06 A3008 RMK AO1 SLP198
SPECI CYNL 141846Z AUTO 33007KT 1 1/4SM SCT024 09/06 A3008 RMK AO1 SLP198
SPECI CYNL 141845Z AUTO 33008KT 1 1/2SM SCT024 10/06 A3008 RMK AO1 SLP198
SPECI CYNL 141844Z AUTO 33008KT 2SM SCT025 10/06 A3008 RMK AO1 SLP197
METAR CYNL 141800Z AUTO 32005KT 280V010 9SM FEW018 SCT031 09/04 A3008 RMK AO1 SLP197
SPECI CYNL 141721Z AUTO 34006KT 9SM FEW016 SCT029 BKN040 08/04 A3008 RMK AO1 SLP199
SPECI CYNL 141715Z AUTO 33006KT 9SM FEW015 SCT021 BKN027 08/05 A3008 RMK AO1 SLP200
METAR CYNL 141700Z AUTO 32005KT 9SM FEW015 BKN020 OVC033 08/05 A3008 RMK AO1 SLP200
SPECI CYNL 141647Z AUTO 34004KT 9SM FEW013 BKN021 08/05 A3008 RMK AO1 SLP199
SPECI CYNL 141618Z AUTO 32003KT 9SM FEW013 SCT027 08/06 A3008 RMK AO1 SLP200
SPECI CYNL 141608Z AUTO 34004KT 9SM FEW007 SCT022 OVC027 07/05 A3008 RMK AO1 SLP200
SPECI CYNL 141607Z AUTO 35005KT 9SM FEW007 OVC024 07/05 A3008 RMK AO1 SLP200
SPECI CYNL 141606Z AUTO 35005KT 9SM FEW007 SCT021 OVC026 07/05 A3008 RMK AO1 SLP200
SPECI CYNL 141602Z AUTO 35003KT 9SM FEW007 OVC024 07/05 A3008 RMK AO1 SLP200
METAR CYNL 141600Z AUTO 35004KT 9SM FEW007 OVC025 07/05 A3008 RMK AO1 SLP200
SPECI CYNL 141558Z AUTO 35004KT 9SM FEW007 SCT014 OVC027 07/05 A3008 RMK AO1 SLP200
SPECI CYNL 141554Z AUTO 35004KT 9SM FEW008 SCT012 BKN021 07/05 A3008 RMK AO1 SLP200
SPECI CYNL 141546Z AUTO 35003KT 7SM FEW008 SCT011 BKN014 06/05 A3008 RMK AO1 SLP201
SPECI CYNL 141541Z AUTO 00003KT 6SM FEW008 SCT012 BKN015 06/05 A3008 RMK AO1 SLP201
SPECI CYNL 141529Z AUTO 01006KT 3SM FEW008 BKN011 BKN024 07/05 A3008 RMK AO1 SLP200
SPECI CYNL 141509Z AUTO 34003KT 8SM FEW009 SCT014 BKN024 07/06 A3008 RMK AO1 SLP199
SPECI CYNL 141508Z AUTO 33003KT 8SM FEW009 SCT013 BKN025 07/06 A3008 RMK AO1 SLP199
METAR CYNL 141500Z AUTO 34004KT 6SM FEW009 SCT011 BKN019 07/06 A3007 RMK AO1 SLP199
SPECI CYNL 141459Z AUTO 34003KT 6SM FEW009 SCT011 BKN019 07/06 A3007 RMK AO1 SLP199
SPECI CYNL 141452Z AUTO 33003KT 3SM SCT008 BKN013 07/06 A3007 RMK AO1 SLP198
SPECI CYNL 141423Z AUTO 00000KT 9SM SCT007 BKN015 BKN018 06/06 A3007 RMK AO1 SLP198
SPECI CYNL 141414Z AUTO 00000KT 9SM SCT007 BKN011 BKN016 06/06 A3007 RMK AO1 SLP198
SPECI CYNL 141411Z AUTO 25002KT 9SM VV007 06/06 A3007 RMK AO1 SLP198
SPECI CYNL 141406Z AUTO 00000KT 9SM SCT007 BKN011 BKN015 06/06 A3007 RMK AO1 SLP198
SPECI CYNL 141404Z AUTO 00000KT 9SM FEW007 SCT011 BKN015 06/06 A3007 RMK AO1 SLP198
METAR CYNL 141400Z AUTO 00000KT 9SM FEW008 BKN011 BKN014 06/06 A3007 RMK AO1 SLP197
SPECI CYNL 141342Z AUTO 00000KT 9SM SCT008 BKN013 OVC017 06/06 A3007 RMK AO1 SLP197
SPECI CYNL 141335Z AUTO 29002KT 9SM BKN008 BKN012 OVC016 06/06 A3007 RMK AO1 SLP196
SPECI CYNL 141326Z AUTO 30002KT 9SM SCT008 BKN013 OVC017 06/06 A3007 RMK AO1 SLP196
SPECI CYNL 141314Z AUTO 30003KT 9SM BKN008 BKN040 06/05 A3007 RMK AO1 SLP197
SPECI CYNL 141311Z AUTO 30003KT 9SM SCT009 BKN014 BKN040 06/05 A3007 RMK AO1 SLP196
SPECI CYNL 141301Z AUTO 28003KT 9SM FEW009 BKN040 06/05 A3006 RMK AO1 SLP196
METAR CYNL 141300Z AUTO 28003KT 9SM FEW011 BKN040 06/05 A3006 RMK AO1 SLP196
SPECI CYNL 141222Z AUTO 30003KT 9SM FEW009 SCT042 06/05 A3006 RMK AO1 SLP193
METAR CYNL 141200Z AUTO 30003KT 9SM BKN042 06/05 A3005 RMK AO1 SLP192
METAR CYNL 141100Z AUTO 28003KT 9SM OVC040 05/05 A3005 RMK AO1 SLP190
METAR CYNL 141000Z AUTO 27002KT 9SM BKN041 05/05 A3005 RMK AO1 SLP190
METAR CYNL 140900Z AUTO 27002KT 9SM OVC040 05/05 A3005 RMK AO1 SLP190
METAR CYNL 140800Z AUTO 29003KT 9SM BKN039 05/04 A3005 RMK AO1 SLP187
METAR CYNL 140700Z AUTO 30004KT 9SM BKN036 05/04 A3004 RMK AO1 SLP186
METAR CYNL 140600Z AUTO 29003KT 9SM OVC040 06/04 A3004 RMK AO1 SLP187
METAR CYNL 140500Z AUTO 30003KT 9SM OVC040 06/04 A3004 RMK AO1 SLP186
METAR CYNL 140400Z AUTO 32004KT 9SM OVC038 06/04 A3004 RMK AO1 SLP187
METAR CYNL 140300Z AUTO 30004KT 9SM OVC038 06/04 A3004 RMK AO1 SLP189
METAR CYNL 140200Z AUTO 29004KT 9SM FEW016 BKN035 06/04 A3003 RMK AO1 SLP186
METAR CYNL 140100Z AUTO 30006KT 9SM OVC040 07/04 A3003 RMK AO1 SLP184
METAR CYNL 140000Z AUTO 31006KT 9SM BKN033 07/03 A3002 RMK AO1 SLP182
METAR CYNL 132300Z AUTO 31005KT 9SM SCT038 08/03 A3002 RMK AO1 SLP181
SPECI CYNL 132230Z AUTO 31005KT 9SM SCT030 BKN038 08/03 A3002 RMK AO1 SLP180
SPECI CYNL 132229Z AUTO 30004KT 9SM BKN029 BKN037 08/03 A3002 RMK AO1 SLP180
SPECI CYNL 132228Z AUTO 31004KT 9SM SCT029 BKN037 08/03 A3002 RMK AO1 SLP180
SPECI CYNL 132227Z AUTO 32005KT 9SM BKN029 BKN038 08/03 A3002 RMK AO1 SLP180
METAR CYNL 132200Z AUTO 31006KT 9SM BKN033 08/03 A3002 RMK AO1 SLP180
METAR CYNL 132100Z AUTO 30007KT 9SM BKN039 10/01 A3001 RMK AO1 SLP176
METAR CYNL 132000Z AUTO 28006KT 9SM FEW056 09/01 A3002 RMK AO1 SLP179
METAR CYNL 131900Z AUTO 32007KT 9SM CLR 08/01 A3002 RMK AO1 SLP180
METAR CYNL 131800Z AUTO 31007KT 9SM CLR 08/02 A3001 RMK AO1 SLP177
METAR CYNL 131700Z AUTO 33005KT 9SM CLR 06/03 A3002 RMK AO1 SLP181
METAR CYNL 131600Z AUTO 32005KT 9SM SCT034 05/03 A3002 RMK AO1 SLP183
METAR CYNL 131500Z AUTO 31004KT 9SM BKN052 05/03 A3000 RMK AO1 SLP178
METAR CYNL 131400Z AUTO 33004KT 9SM CLR 04/03 A3000 RMK AO1 SLP179
METAR CYNL 131300Z AUTO 34005KT 9SM CLR 04/03 A3000 RMK AO1 SLP178
METAR CYNL 131200Z AUTO 01004KT 9SM CLR 04/02 A2999 RMK AO1 SLP175
SPECI CYNL 131129Z AUTO 01005KT 9SM SCT026 04/02 A2999 RMK AO1 SLP173
SPECI CYNL 131103Z AUTO 02004KT 9SM OVC025 04/02 A2998 RMK AO1 SLP171
METAR CYNL 131100Z AUTO 03004KT 9SM OVC024 04/02 A2998 RMK AO1 SLP171
SPECI CYNL 131019Z AUTO 01004KT 9SM BKN024 04/03 A2997 RMK AO1 SLP168
SPECI CYNL 131013Z AUTO 01005KT 9SM SCT023 BKN029 04/02 A2997 RMK AO1 SLP167
SPECI CYNL 131009Z AUTO 02005KT 9SM SCT022 04/02 A2997 RMK AO1 SLP167
SPECI CYNL 131007Z AUTO 01005KT 9SM SCT022 BKN029 04/03 A2997 RMK AO1 SLP167
SPECI CYNL 131005Z AUTO 01005KT 9SM SCT021 BKN030 04/02 A2997 RMK AO1 SLP166
METAR CYNL 131000Z AUTO 01006KT 9SM BKN021 04/03 A2997 RMK AO1 SLP166
SPECI CYNL 130938Z AUTO 01006KT 9SM BKN020 04/03 A2997 RMK AO1 SLP166
SPECI CYNL 130930Z AUTO 01005KT 9SM FEW020 BKN026 04/03 A2997 RMK AO1 SLP165
SPECI CYNL 130914Z AUTO 01006KT 7SM SCT026 04/03 A2997 RMK AO1 SLP165
SPECI CYNL 130908Z AUTO 01006KT 9SM BKN025 04/02 A2997 RMK AO1 SLP165
METAR CYNL 130900Z AUTO 01005KT 9SM BKN023 04/03 A2997 RMK AO1 SLP164
SPECI CYNL 130851Z AUTO 01006KT 9SM BKN022 04/03 A2996 RMK AO1 SLP164
SPECI CYNL 130847Z AUTO 01005KT 9SM SCT021 BKN026 04/03 A2996 RMK AO1 SLP163
SPECI CYNL 130841Z AUTO 01005KT 9SM BKN021 04/03 A2996 RMK AO1 SLP163
SPECI CYNL 130832Z AUTO 01005KT 9SM FEW021 BKN026 04/03 A2996 RMK AO1 SLP162
METAR CYNL 130800Z AUTO 02005KT 9SM SCT025 04/03 A2995 RMK AO1 SLP160
SPECI CYNL 130752Z AUTO 01005KT 9SM SCT024 04/03 A2995 RMK AO1 SLP160
SPECI CYNL 130730Z AUTO 02005KT 9SM BKN022 04/03 A2996 RMK AO1 SLP161
SPECI CYNL 130729Z AUTO 02005KT 9SM SCT021 BKN025 04/03 A2996 RMK AO1 SLP161
SPECI CYNL 130724Z AUTO 02005KT 9SM BKN021 04/03 A2996 RMK AO1 SLP161
SPECI CYNL 130722Z AUTO 01005KT 9SM SCT021 BKN026 04/03 A2996 RMK AO1 SLP161
METAR CYNL 130700Z AUTO 03005KT 9SM FEW020 04/03 A2995 RMK AO1 SLP160
SPECI CYNL 130635Z AUTO 02005KT 9SM SCT018 04/03 A2995 RMK AO1 SLP159
METAR CYNL 130600Z AUTO 02007KT 9SM OVC016 04/03 A2995 RMK AO1 SLP157
SPECI CYNL 130536Z AUTO 03006KT 9SM SCT015 BKN019 04/03 A2994 RMK AO1 SLP156
SPECI CYNL 130519Z AUTO 03007KT 9SM FEW008 SCT016 04/03 A2994 RMK AO1 SLP155
SPECI CYNL 130518Z AUTO 03006KT 9SM FEW008 BKN015 04/04 A2994 RMK AO1 SLP155
SPECI CYNL 130517Z AUTO 03006KT 9SM FEW008 SCT015 04/04 A2994 RMK AO1 SLP155
SPECI CYNL 130508Z AUTO 03007KT 9SM SCT008 BKN016 04/04 A2994 RMK AO1 SLP155
METAR CYNL 130500Z AUTO 03007KT 5SM BKN008 OVC020 04/04 A2994 RMK AO1 SLP154
SPECI CYNL 130445Z AUTO 03008KT 5SM BKN007 BKN024 04/04 A2993 RMK AO1 SLP154
SPECI CYNL 130441Z AUTO 03007KT 5SM SCT008 BKN024 04/04 A2993 RMK AO1 SLP153
SPECI CYNL 130440Z AUTO 03007KT 5SM VV007 04/04 A2993 RMK AO1 SLP153
SPECI CYNL 130435Z AUTO 03007KT 7SM FEW007 BKN023 04/04 A2993 RMK AO1 SLP153
SPECI CYNL 130434Z AUTO 03007KT 7SM VV014 04/04 A2993 RMK AO1 SLP153
SPECI CYNL 130430Z AUTO 03009KT 9SM VV023 04/04 A2993 RMK AO1 SLP153
SPECI CYNL 130426Z AUTO 03007KT 9SM VV025 05/04 A2993 RMK AO1 SLP153
SPECI CYNL 130410Z AUTO 03008KT 4SM FEW007 SCT015 BKN020 05/04 A2993 RMK AO1 SLP152
SPECI CYNL 130406Z AUTO 04007KT 3SM VV020 05/04 A2993 RMK AO1 SLP152
METAR CYNL 130400Z AUTO 03007KT 2SM VV017 05/04 A2993 RMK AO1 SLP152
SPECI CYNL 130350Z AUTO 03008KT 2 1/2SM VV017 05/04 A2993 RMK AO1 SLP151
SPECI CYNL 130328Z AUTO 03008KT 3SM VV024 05/04 A2992 RMK AO1 SLP150
SPECI CYNL 130326Z AUTO 03008KT 3SM VV025 05/04 A2992 RMK AO1 SLP149
SPECI CYNL 130311Z AUTO 03008KT 3SM SCT014 OVC020 05/04 A2992 RMK AO1 SLP147
SPECI CYNL 130305Z AUTO 03009KT 2 1/2SM SCT014 OVC019 05/04 A2991 RMK AO1 SLP146
SPECI CYNL 130304Z AUTO 03008KT 2 1/2SM BKN014 OVC019 05/04 A2991 RMK AO1 SLP146
SPECI CYNL 130303Z AUTO 03007KT 2 1/2SM SCT014 OVC019 05/04 A2991 RMK AO1 SLP146
METAR CYNL 130300Z AUTO 03008KT 2SM BKN014 OVC018 05/05 A2991 RMK AO1 SLP146
SPECI CYNL 130259Z AUTO 03007KT 2SM BKN014 OVC018 05/05 A2991 RMK AO1 SLP146
SPECI CYNL 130251Z AUTO 03008KT 1 1/2SM OVC014 05/05 A2991 RMK AO1 SLP145
SPECI CYNL 130249Z AUTO 03007KT 1 1/4SM OVC013 05/05 A2991 RMK AO1 SLP145
SPECI CYNL 130247Z AUTO 03007KT 1 1/4SM VV015 05/05 A2991 RMK AO1 SLP145
SPECI CYNL 130238Z AUTO 03007KT 1 1/4SM VV013 05/05 A2991 RMK AO1 SLP144
SPECI CYNL 130232Z AUTO 02007KT 1 1/2SM VV012 05/05 A2990 RMK AO1 SLP143
SPECI CYNL 130228Z AUTO 03006KT 1 1/4SM VV012 05/05 A2990 RMK AO1 SLP143
SPECI CYNL 130226Z AUTO 02006KT 1 1/2SM VV012 05/05 A2990 RMK AO1 SLP143
SPECI CYNL 130205Z AUTO 02005KT 1 1/4SM SCT007 OVC011 05/05 A2990 RMK AO1 SLP142
SPECI CYNL 130203Z AUTO 03006KT 1 3/4SM SCT007 BKN010 OVC012 05/05 A2990 RMK AO1 SLP142
METAR CYNL 130200Z AUTO 03006KT 2 1/2SM SCT007 OVC010 05/05 A2990 RMK AO1 SLP141
SPECI CYNL 130157Z AUTO 03006KT 5SM SCT007 OVC010 05/05 A2990 RMK AO1 SLP141
SPECI CYNL 130145Z AUTO 03007KT 6SM BKN007 OVC010 05/05 A2990 RMK AO1 SLP141
SPECI CYNL 130130Z AUTO 02006KT 9SM FEW007 BKN010 OVC012 05/05 A2989 RMK AO1 SLP139
METAR CYNL 130100Z AUTO 05006KT 9SM OVC011 06/04 A2989 RMK AO1 SLP137
SPECI CYNL 130057Z AUTO 05006KT 9SM SCT009 OVC011 06/04 A2989 RMK AO1 SLP137
SPECI CYNL 130051Z AUTO 05006KT 9SM OVC010 06/04 A2989 RMK AO1 SLP137
METAR CYNL 130000Z AUTO 07008KT 8SM BKN007 OVC010 06/05 A2987 RMK AO1 SLP131
METAR CYNL 122300Z AUTO 07009KT 4SM OVC006 06/05 A2985 RMK AO1 SLP126
SPECI CYNL 122251Z AUTO 05008KT 3SM BKN006 OVC011 06/05 A2986 RMK AO1 SLP127
SPECI CYNL 122250Z AUTO 05007KT 2SM BKN006 OVC011 06/05 A2986 RMK AO1 SLP127
SPECI CYNL 122248Z AUTO 05008KT 1 3/4SM BKN006 OVC010 06/05 A2985 RMK AO1 SLP127
SPECI CYNL 122247Z AUTO 05008KT 2 1/2SM BKN006 OVC010 06/05 A2985 RMK AO1 SLP126
SPECI CYNL 122221Z AUTO 05010KT 3SM SCT006 BKN009 OVC011 06/05 A2985 RMK AO1 SLP126
SPECI CYNL 122218Z AUTO 05009KT 2SM SCT006 BKN009 OVC011 06/05 A2985 RMK AO1 SLP125
SPECI CYNL 122217Z AUTO 06010KT 2 1/2SM SCT007 OVC011 06/05 A2985 RMK AO1 SLP125
SPECI CYNL 122214Z AUTO 05008KT 2 1/2SM SCT007 BKN009 OVC011 06/05 A2985 RMK AO1 SLP124
SPECI CYNL 122213Z AUTO 05008KT 3SM SCT007 BKN009 OVC011 06/05 A2985 RMK AO1 SLP124
SPECI CYNL 122206Z AUTO 06009KT 6SM SCT006 OVC011 06/05 A2984 RMK AO1 SLP122
SPECI CYNL 122202Z AUTO 06009KT 6SM SCT006 BKN009 BKN011 06/05 A2984 RMK AO1 SLP122
METAR CYNL 122200Z AUTO 06008KT 9SM SCT006 BKN010 OVC016 06/05 A2984 RMK AO1 SLP123
SPECI CYNL 122149Z AUTO 05009KT 4SM BKN006 OVC010 06/05 A2984 RMK AO1 PRESRR SLP123
SPECI CYNL 122148Z AUTO 05009KT 3SM SCT006 OVC010 06/05 A2984 RMK AO1 PRESRR SLP123
SPECI CYNL 122139Z AUTO 05010KT 2SM SCT005 BKN008 OVC010 06/05 A2984 RMK AO1 PRESRR SLP122
SPECI CYNL 122132Z AUTO 05008KT 1 1/2SM SCT005 BKN008 OVC010 06/06 A2984 RMK AO1 PRESRR SLP120
SPECI CYNL 122131Z AUTO 05008KT 1 1/4SM SCT005 BKN008 OVC010 06/06 A2983 RMK AO1 PRESRR SLP120
SPECI CYNL 122130Z AUTO 05008KT 1 1/2SM SCT005 OVC010 06/06 A2983 RMK AO1 PRESRR SLP119
SPECI CYNL 122128Z AUTO 05006KT 1 3/4SM VV009 06/06 A2983 RMK AO1 PRESRR SLP120
SPECI CYNL 122127Z AUTO 05006KT 2SM VV009 06/06 A2984 RMK AO1 PRESRR SLP120
SPECI CYNL 122125Z AUTO 06006KT 2SM VV010 06/06 A2984 RMK AO1 PRESRR SLP120
SPECI CYNL 122123Z AUTO 06008KT 1 1/2SM VV009 06/06 A2983 RMK AO1 PRESRR SLP120
SPECI CYNL 122121Z AUTO 06009KT 1 3/4SM SCT006 OVC010 06/05 A2983 RMK AO1 PRESRR SLP119
SPECI CYNL 122118Z AUTO 05009KT 1 1/2SM SCT006 OVC009 06/05 A2983 RMK AO1 PRESRR SLP119
SPECI CYNL 122116Z AUTO 05008KT 1 1/2SM SCT006 OVC010 06/05 A2983 RMK AO1 PRESRR SLP118
SPECI CYNL 122115Z AUTO 05010KT 1 1/2SM FEW005 SCT007 OVC009 06/05 A2983 RMK AO1 PRESRR SLP118
SPECI CYNL 122111Z AUTO 06010KT 1 1/4SM VV008 06/05 A2983 RMK AO1 PRESRR SLP118
SPECI CYNL 122110Z AUTO 06010KT 1 1/2SM VV008 06/05 A2983 RMK AO1 PRESRR SLP118
SPECI CYNL 122104Z AUTO 05007KT 1SM VV008 06/06 A2983 RMK AO1 PRESRR SLP118
METAR CYNL 122100Z AUTO 04009KT 3/4SM VV007 06/06 A2983 RMK AO1 PRESRR SLP118
SPECI CYNL 122051Z AUTO 03009KT 3/4SM VV007 06/05 A2983 RMK AO1 SLP117
SPECI CYNL 122047Z AUTO 04009KT 5/8SM VV008 06/05 A2983 RMK AO1 SLP116
SPECI CYNL 122039Z AUTO 03009KT 3/4SM VV006 06/05 A2982 RMK AO1 SLP115
SPECI CYNL 122034Z AUTO 03007KT 1SM VV006 06/06 A2982 RMK AO1 SLP115
SPECI CYNL 122029Z AUTO 05007KT 3/4SM VV007 06/06 A2982 RMK AO1 SLP114
SPECI CYNL 122027Z AUTO 05009KT 5/8SM VV006 06/06 A2982 RMK AO1 SLP113
SPECI CYNL 122026Z AUTO 05009KT 3/4SM VV006 06/06 A2982 RMK AO1 SLP113
SPECI CYNL 122021Z AUTO 03008KT 1 1/4SM VV005 06/06 A2981 RMK AO1 SLP111
SPECI CYNL 122015Z AUTO 06006KT 1 1/2SM VV008 06/06 A2981 RMK AO1 SLP111
SPECI CYNL 122012Z AUTO 06007KT 1 1/4SM VV009 06/06 A2981 RMK AO1 SLP110
SPECI CYNL 122010Z AUTO 06008KT 1 1/2SM VV008 06/06 A2981 RMK AO1 SLP110
SPECI CYNL 122008Z AUTO 06009KT 1 1/4SM VV007 06/06 A2981 RMK AO1 SLP109
SPECI CYNL 122006Z AUTO 06007KT 1 3/4SM SCT006 BKN009 BKN013 07/06 A2981 RMK AO1 SLP109
SPECI CYNL 122005Z AUTO 06005KT 1 1/2SM FEW006 SCT009 BKN013 07/06 A2981 RMK AO1 SLP109
SPECI CYNL 122003Z AUTO 06008KT 1 1/4SM SCT006 BKN013 OVC023 07/06 A2981 RMK AO1 SLP109
SPECI CYNL 122002Z AUTO 06007KT 1 3/4SM FEW006 SCT009 BKN013 07/06 A2981 RMK AO1 SLP109
METAR CYNL 122000Z AUTO 08006KT 6SM SCT008 BKN014 OVC023 07/06 A2981 RMK AO1 SLP109
SPECI CYNL 121955Z AUTO 09007KT 3SM FEW007 BKN012 BKN016 06/06 A2981 RMK AO1 PRESRR SLP108
SPECI CYNL 121954Z AUTO 08006KT 2 1/2SM FEW007 BKN012 BKN016 06/06 A2981 RMK AO1 PRESRR SLP108
SPECI CYNL 121952Z AUTO 07007KT 2 1/2SM FEW006 SCT012 BKN016 06/06 A2981 RMK AO1 PRESRR SLP108
SPECI CYNL 121951Z AUTO 08007KT 2SM FEW006 BKN013 OVC022 06/06 A2981 RMK AO1 PRESRR SLP108
SPECI CYNL 121949Z AUTO 08006KT 1 1/2SM FEW007 BKN013 OVC022 07/06 A2980 RMK AO1 PRESRR SLP107
SPECI CYNL 121948Z AUTO 09005KT 1 3/4SM FEW007 SCT012 BKN017 07/06 A2980 RMK AO1 PRESRR SLP107
SPECI CYNL 121946Z AUTO 09005KT 2 1/2SM VV015 07/06 A2980 RMK AO1 PRESRR SLP107
SPECI CYNL 121945Z AUTO 08005KT 2 1/2SM VV014 07/06 A2980 RMK AO1 PRESRR SLP107
SPECI CYNL 121944Z AUTO 08005KT 3SM VV014 07/06 A2980 RMK AO1 PRESRR SLP106
SPECI CYNL 121937Z AUTO 09003KT 3SM VV016 06/06 A2980 RMK AO1 PRESRR SLP106
SPECI CYNL 121924Z AUTO 10006KT 2 1/2SM VV020 06/05 A2979 RMK AO1 PRESRR SLP104
SPECI CYNL 121923Z AUTO 10006KT 3SM VV020 06/05 A2979 RMK AO1 PRESRR SLP103
SPECI CYNL 121920Z AUTO 08005KT 3SM SCT007 BKN011 OVC020 06/05 A2979 RMK AO1 PRESRR SLP103
SPECI CYNL 121919Z AUTO 09005KT 3SM BKN007 OVC020 06/05 A2979 RMK AO1 PRESRR SLP103
SPECI CYNL 121916Z AUTO 11005KT 2 1/2SM SCT007 BKN010 BKN013 06/06 A2979 RMK AO1 PRESRR SLP103
SPECI CYNL 121913Z AUTO 09004KT 3SM SCT007 BKN010 BKN014 06/06 A2979 RMK AO1 PRESRR SLP103
METAR CYNL 121900Z AUTO 09006KT 3SM SCT006 BKN009 OVC014 06/05 A2979 RMK AO1 PRESRR SLP102
SPECI CYNL 121856Z AUTO 09006KT 2 1/2SM FEW006 BKN010 OVC014 06/05 A2979 RMK AO1 SLP101
SPECI CYNL 121846Z AUTO 08008KT 3SM SCT006 BKN010 OVC014 06/05 A2978 RMK AO1 SLP101
SPECI CYNL 121845Z AUTO 07007KT 3SM SCT006 BKN009 BKN012 06/05 A2978 RMK AO1 SLP101
SPECI CYNL 121844Z AUTO 07007KT 3SM SCT006 BKN010 OVC012 06/05 A2978 RMK AO1 SLP101
SPECI CYNL 121839Z AUTO 08006KT 2SM FEW007 BKN010 OVC014 06/06 A2978 RMK AO1 SLP100
SPECI CYNL 121836Z AUTO 07007KT 1 3/4SM FEW007 BKN010 OVC014 06/05 A2978 RMK AO1 SLP100
SPECI CYNL 121832Z AUTO 09006KT 2 1/2SM FEW007 BKN010 OVC014 06/05 A2978 RMK AO1 SLP099
SPECI CYNL 121804Z AUTO 08006KT 3SM SCT006 BKN010 OVC014 06/05 A2977 RMK AO1 SLP096
SPECI CYNL 121801Z AUTO 09006KT 3SM BKN006 BKN012 OVC015 06/05 A2977 RMK AO1 SLP095
METAR CYNL 121800Z AUTO 09006KT 3SM SCT006 BKN010 BKN012 06/05 A2977 RMK AO1 SLP095
SPECI CYNL 121759Z AUTO 10007KT 3SM SCT006 BKN010 BKN012 06/05 A2976 RMK AO1 SLP095
SPECI CYNL 121749Z AUTO 09007KT 3SM SCT006 BKN007 OVC010 06/05 A2976 RMK AO1 SLP093
SPECI CYNL 121746Z AUTO 09007KT 4SM SCT006 OVC010 06/05 A2976 RMK AO1 SLP093
SPECI CYNL 121723Z AUTO 09008KT 3SM SCT006 BKN008 BKN011 05/05 A2976 RMK AO1 SLP092
SPECI CYNL 121711Z AUTO 09007KT 2 1/2SM SCT005 BKN007 OVC014 05/05 A2976 RMK AO1 SLP092
SPECI CYNL 121709Z AUTO 09005KT 3SM FEW005 BKN007 OVC013 05/05 A2976 RMK AO1 SLP092
SPECI CYNL 121704Z AUTO 10007KT 2 1/2SM SCT006 BKN010 OVC014 05/05 A2975 RMK AO1 SLP091
SPECI CYNL 121702Z AUTO 09006KT 2SM SCT006 BKN008 OVC012 05/05 A2975 RMK AO1 SLP091
METAR CYNL 121700Z AUTO 09007KT 1 3/4SM SCT006 BKN008 OVC012 05/05 A2975 RMK AO1 SLP091
SPECI CYNL 121655Z AUTO 09005KT 1 3/4SM VV008 05/05 A2975 RMK AO1 SLP092
SPECI CYNL 121654Z AUTO 09005KT 1 3/4SM VV010 05/05 A2975 RMK AO1 SLP092
SPECI CYNL 121652Z AUTO 09006KT 2SM VV010 05/05 A2975 RMK AO1 SLP092
SPECI CYNL 121648Z AUTO 08007KT 1 1/2SM VV011 05/05 A2975 RMK AO1 SLP093
SPECI CYNL 121642Z AUTO 09009KT 1 1/4SM VV010 05/04 A2976 RMK AO1 SLP093
SPECI CYNL 121640Z AUTO 08009KT 1 1/4SM BKN006 BKN011 OVC022 05/05 A2976 RMK AO1 SLP093
SPECI CYNL 121638Z AUTO 09008KT 1 3/4SM SCT006 BKN008 OVC019 05/05 A2976 RMK AO1 SLP093
SPECI CYNL 121634Z AUTO 09007KT 2 1/2SM SCT006 BKN009 BKN016 05/05 A2976 RMK AO1 SLP093
SPECI CYNL 121632Z AUTO 10008KT 3SM SCT006 BKN009 BKN016 05/05 A2975 RMK AO1 SLP092
SPECI CYNL 121630Z AUTO 10007KT 4SM SCT006 BKN016 OVC022 05/05 A2975 RMK AO1 SLP092
SPECI CYNL 121625Z AUTO 10008KT 4SM VV015 05/05 A2975 RMK AO1 SLP093
SPECI CYNL 121624Z AUTO 09008KT 3SM VV013 05/05 A2976 RMK AO1 SLP093
SPECI CYNL 121622Z AUTO 09009KT 2 1/2SM VV011 05/04 A2976 RMK AO1 SLP093
SPECI CYNL 121619Z AUTO 09008KT 2SM VV009 05/05 A2976 RMK AO1 SLP094
SPECI CYNL 121615Z AUTO 09008KT 1 3/4SM VV014 05/04 A2976 RMK AO1 SLP094
SPECI CYNL 121612Z AUTO 08007KT 1 1/2SM VV015 05/04 A2976 RMK AO1 SLP094
SPECI CYNL 121610Z AUTO 08008KT 1 1/4SM VV015 05/04 A2976 RMK AO1 SLP094
SPECI CYNL 121603Z AUTO 07007KT 1 3/4SM VV016 05/04 A2975 RMK AO1 SLP093
SPECI CYNL 121601Z AUTO 08008KT 2SM VV015 05/04 A2975 RMK AO1 SLP092
METAR CYNL 121600Z AUTO 08008KT 2SM VV013 05/04 A2975 RMK AO1 SLP092
SPECI CYNL 121556Z AUTO 09006KT 2SM FEW005 SCT007 BKN013 05/05 A2975 RMK AO1 SLP092
SPECI CYNL 121552Z AUTO 08006KT 1 3/4SM SCT007 BKN013 OVC018 05/04 A2976 RMK AO1 SLP093
SPECI CYNL 121548Z AUTO 08005KT 2SM FEW007 BKN013 OVC018 05/04 A2976 RMK AO1 SLP094
SPECI CYNL 121546Z AUTO 06004KT 1 3/4SM FEW007 BKN013 OVC018 05/04 A2976 RMK AO1 SLP095
SPECI CYNL 121542Z AUTO 06005KT 2SM FEW007 SCT013 OVC018 05/04 A2976 RMK AO1 SLP095
SPECI CYNL 121538Z AUTO 07004KT 1 1/2SM FEW009 OVC018 05/04 A2976 RMK AO1 SLP093
SPECI CYNL 121536Z AUTO 07005KT 1 3/4SM VV016 05/04 A2975 RMK AO1 SLP092
SPECI CYNL 121527Z AUTO 08005KT 2 1/2SM VV018 05/04 A2975 RMK AO1 SLP090
METAR CYNL 121500Z AUTO 09007KT 9SM BKN022 OVC031 05/04 A2974 RMK AO1 SLP087
SPECI CYNL 121454Z AUTO 09006KT 9SM BKN022 OVC032 05/04 A2974 RMK AO1 SLP089
METAR CYNL 121400Z AUTO 10006KT 9SM OVC035 04/03 A2974 RMK AO1 SLP089
SPECI CYNL 121301Z AUTO 11005KT 9SM SCT014 OVC034 04/04 A2975 RMK AO1 SLP090
METAR CYNL 121300Z AUTO 10005KT 9SM SCT014 BKN023 OVC034 04/04 A2975 RMK AO1 SLP090
SPECI CYNL 121259Z AUTO 10004KT 8SM SCT014 BKN018 OVC034 04/04 A2975 RMK AO1 SLP089
SPECI CYNL 121220Z AUTO 11004KT 9SM BKN014 OVC039 04/04 A2975 RMK AO1 SLP089
SPECI CYNL 121218Z AUTO 11003KT 9SM SCT014 BKN016 OVC039 04/04 A2975 RMK AO1 SLP089
SPECI CYNL 121217Z AUTO 11003KT 9SM BKN014 OVC039 04/04 A2975 RMK AO1 SLP089
METAR CYNL 121200Z AUTO 09004KT 9SM BKN039 04/04 A2974 RMK AO1 SLP086
SPECI CYNL 121126Z AUTO 07003KT 9SM SCT014 BKN041 04/03 A2975 RMK AO1 SLP089
SPECI CYNL 121122Z AUTO 06003KT 9SM BKN014 BKN041 04/03 A2975 RMK AO1 SLP088
SPECI CYNL 121119Z AUTO 06004KT 8SM SCT013 BKN016 OVC041 04/03 A2975 RMK AO1 SLP087
SPECI CYNL 121116Z AUTO 06004KT 9SM BKN014 OVC041 04/03 A2974 RMK AO1 SLP086
SPECI CYNL 121112Z AUTO 07004KT 8SM BKN015 BKN041 04/03 A2974 RMK AO1 SLP086
METAR CYNL 121100Z AUTO 06004KT 5SM FEW017 BKN041 04/03 A2975 RMK AO1 SLP087
METAR CYNL 121000Z AUTO 07006KT 7SM OVC040 04/02 A2974 RMK AO1 SLP086
METAR CYNL 120900Z AUTO 07006KT 9SM OVC041 04/01 A2976 RMK AO1 SLP090
SPECI CYNL 120822Z AUTO 06006KT 6SM FEW008 SCT045 05/02 A2975 RMK AO1 SLP088
METAR CYNL 120800Z AUTO 05004KT 9SM BKN046 BKN066 05/02 A2976 RMK AO1 SLP091
METAR CYNL 120700Z AUTO 04006KT 9SM BKN056 05/02 A2976 RMK AO1 PRESFR SLP092
METAR CYNL 120600Z AUTO 02005KT 9SM SCT064 05/02 A2978 RMK AO1 SLP100
METAR CYNL 120500Z AUTO 01002KT 9SM BKN070 04/02 A2979 RMK AO1 SLP103
METAR CYNL 120400Z AUTO 00000KT 9SM CLR 04/02 A2980 RMK AO1 SLP106
METAR CYNL 120300Z AUTO 02005KT 9SM CLR 04/01 A2978 RMK AO1 SLP103
METAR CYNL 120200Z AUTO 33002KT 9SM CLR 06/02 A2979 RMK AO1 SLP106
SPECI CYNL 120130Z AUTO 32005KT 9SM SCT027 07/02 A2979 RMK AO1 SLP105
METAR CYNL 120100Z AUTO 32006KT 9SM OVC026 07/02 A2980 RMK AO1 SLP107
METAR CYNL 120000Z AUTO 32004KT 9SM OVC027 08/02 A2980 RMK AO1 SLP108
SPECI CYNL 112314Z AUTO 30006KT 9SM OVC025 08/02 A2980 RMK AO1 SLP107
METAR CYNL 112300Z AUTO 32009KT 9SM OVC024 08/03 A2980 RMK AO1 SLP106
SPECI CYNL 112227Z AUTO 30010G17KT 9SM OVC024 08/03 A2980 RMK AO1 SLP107
SPECI CYNL 112213Z AUTO 29010KT 9SM OVC025 08/03 A2980 RMK AO1 SLP106
SPECI CYNL 112206Z AUTO 29009G16KT 9SM OVC024 08/03 A2980 RMK AO1 SLP105
SPECI CYNL 112203Z AUTO 30011G16KT 9SM SCT021 OVC026 08/02 A2980 RMK AO1 SLP105
SPECI CYNL 112202Z AUTO 30010G16KT 9SM OVC024 08/03 A2979 RMK AO1 SLP105
METAR CYNL 112200Z AUTO 29011KT 9SM SCT021 BKN026 08/03 A2979 RMK AO1 SLP104
SPECI CYNL 112159Z AUTO 30011KT 9SM SCT021 BKN026 08/02 A2979 RMK AO1 SLP104
SPECI CYNL 112158Z AUTO 30010G16KT 9SM BKN022 08/02 A2979 RMK AO1 SLP104
SPECI CYNL 112157Z AUTO 31010G16KT 9SM SCT021 BKN027 08/02 A2979 RMK AO1 SLP104
METAR CYNL 112100Z AUTO 30009G17KT 9SM OVC024 08/03 A2979 RMK AO1 SLP101
SPECI CYNL 112033Z AUTO 29011KT 9SM BKN022 08/03 A2978 RMK AO1 SLP100
SPECI CYNL 112026Z AUTO 30008G19KT 9SM SCT022 BKN030 08/03 A2979 RMK AO1 SLP100
SPECI CYNL 112002Z AUTO 29008G18KT 9SM BKN024 OVC032 08/03 A2978 RMK AO1 SLP097
METAR CYNL 112000Z AUTO 30010G18KT 9SM BKN025 OVC033 08/02 A2978 RMK AO1 SLP097
SPECI CYNL 111951Z AUTO 30011G20KT 9SM BKN025 BKN032 08/02 A2977 RMK AO1 SLP095
SPECI CYNL 111940Z AUTO 31009G22KT 9SM BKN024 08/02 A2977 RMK AO1 SLP094
SPECI CYNL 111936Z AUTO 31011G22KT 9SM BKN025 08/02 A2977 RMK AO1 SLP094
SPECI CYNL 111918Z AUTO 29013G21KT 9SM BKN024 OVC030 07/02 A2976 RMK AO1 SLP092
SPECI CYNL 111904Z AUTO 31011G20KT 9SM BKN025 08/02 A2976 RMK AO1 SLP090
METAR CYNL 111900Z AUTO 29014G20KT 9SM BKN024 07/02 A2975 RMK AO1 SLP089
SPECI CYNL 111844Z AUTO 29011G17KT 9SM BKN021 07/03 A2975 RMK AO1 SLP087
SPECI CYNL 111838Z AUTO 29012G20KT 9SM SCT018 BKN025 07/02 A2975 RMK AO1 SLP087
METAR CYNL 111800Z AUTO 28013G21KT 7SM FEW014 BKN018 BKN026 06/03 A2975 RMK AO1 SLP088
SPECI CYNL 111753Z AUTO 29011G21KT 9SM BKN018 07/02 A2975 RMK AO1 SLP085
SPECI CYNL 111744Z AUTO 29012G19KT 9SM SCT018 BKN026 06/02 A2975 RMK AO1 SLP085
SPECI CYNL 111713Z AUTO 28012G21KT 9SM FEW015 SCT022 BKN190 06/02 A2975 RMK AO1 SLP084
SPECI CYNL 111711Z AUTO 28012G21KT 9SM FEW011 SCT022 BKN027 06/02 A2974 RMK AO1 SLP084
SPECI CYNL 111706Z AUTO 27012G18KT 9SM FEW013 BKN021 06/03 A2974 RMK AO1 SLP083
SPECI CYNL 111704Z AUTO 28011G17KT 9SM FEW013 SCT021 BKN026 06/02 A2974 RMK AO1 SLP084
SPECI CYNL 111701Z AUTO 28009G16KT 9SM FEW013 BKN021 06/02 A2974 RMK AO1 SLP083
METAR CYNL 111700Z AUTO 29010G21KT 9SM FEW013 SCT022 BKN026 06/02 A2974 RMK AO1 SLP083
SPECI CYNL 111650Z AUTO 29013G21KT 9SM SCT013 BKN020 05/02 A2974 RMK AO1 SLP085
SPECI CYNL 111648Z AUTO 28010G20KT 9SM BKN013 BKN031 05/03 A2974 RMK AO1 SLP085
METAR CYNL 111600Z AUTO 30010G22KT 9SM BKN015 04/02 A2974 RMK AO1 SLP083
METAR CYNL 111500Z AUTO 29010G19KT 9SM SCT012 BKN016 04/02 A2972 RMK AO1 SLP078
SPECI CYNL 111448Z AUTO 29008G20KT 6SM SCT011 BKN016 04/02 A2972 RMK AO1 SLP076
SPECI CYNL 111442Z AUTO 30012G20KT 9SM SCT011 BKN014 BKN017 04/01 A2972 RMK AO1 SLP076
SPECI CYNL 111441Z AUTO 30010G20KT 8SM SCT012 BKN016 04/01 A2971 RMK AO1 SLP076
METAR CYNL 111400Z AUTO 28012G20KT 9SM OVC013 03/01 A2970 RMK AO1 SLP072
METAR CYNL 111300Z AUTO 29011G17KT 9SM OVC013 03/01 A2969 RMK AO1 PRESRR SLP067
METAR CYNL 111200Z AUTO 29012G23KT 9SM OVC013 03/01 A2967 RMK AO1 PRESRR SLP060
SPECI CYNL 111109Z AUTO 30015G24KT 9SM BKN012 BKN016 03/01 A2964 RMK AO1 PRESRR SLP052
SPECI CYNL 111108Z AUTO 30014G24KT 9SM SCT012 BKN016 03/01 A2964 RMK AO1 PRESRR SLP052
METAR CYNL 111100Z AUTO 30013G20KT 9SM BKN012 BKN017 03/01 A2964 RMK AO1 PRESRR SLP049
SPECI CYNL 111015Z AUTO 29015G22KT 9SM BKN014 04/01 A2962 RMK AO1 PRESRR SLP041
SPECI CYNL 111014Z AUTO 29014G19KT 9SM SCT014 BKN020 03/01 A2962 RMK AO1 PRESRR SLP041
METAR CYNL 111000Z AUTO 29014G21KT 9SM FEW015 03/01 A2962 RMK AO1 PRESRR SLP040
SPECI CYNL 110929Z AUTO 29017G33KT 9SM SCT021 04/02 A2961 RMK AO1 PRESRR SLP036
SPECI CYNL 110921Z AUTO 29016G33KT 9SM BKN021 04/02 A2960 RMK AO1 PRESRR SLP034
METAR CYNL 110900Z AUTO 29010G21KT 9SM FEW013 SCT022 BKN031 05/02 A2959 RMK AO1 PRESRR SLP030
SPECI CYNL 110849Z AUTO 29012G22KT 9SM SCT014 05/03 A2958 RMK AO1 PRESRR SLP027
SPECI CYNL 110844Z AUTO 29014G21KT 9SM SCT013 BKN017 05/03 A2958 RMK AO1 PRESRR SLP027
SPECI CYNL 110837Z AUTO 29012G20KT 9SM BKN014 05/03 A2958 RMK AO1 PRESRR SLP025
METAR CYNL 110800Z AUTO 30014G21KT 9SM FEW008 SCT012 BKN019 06/04 A2956 RMK AO1 PRESRR SLP019
SPECI CYNL 110747Z AUTO 29013G20KT 4SM FEW007 SCT012 BKN018 06/05 A2956 RMK AO1 PRESRR SLP018
SPECI CYNL 110743Z AUTO 30010G18KT 9SM FEW007 SCT011 BKN013 06/05 A2956 RMK AO1 PRESRR SLP018
SPECI CYNL 110737Z AUTO 30009G16KT 3SM FEW008 SCT012 BKN018 06/06 A2955 RMK AO1 PRESRR SLP016
SPECI CYNL 110735Z AUTO 29011G17KT 2SM VV013 06/06 A2955 RMK AO1 PRESRR SLP016
SPECI CYNL 110732Z AUTO 30010G20KT 1 3/4SM FEW007 SCT018 BKN025 06/06 A2955 RMK AO1 PRESRR SLP016
SPECI CYNL 110731Z AUTO 29008G20KT 2SM FEW007 SCT018 BKN025 06/06 A2955 RMK AO1 PRESRR SLP016
SPECI CYNL 110729Z AUTO 29009G21KT 2 1/2SM FEW007 SCT018 06/06 A2955 RMK AO1 PRESRR SLP015
SPECI CYNL 110728Z AUTO 29011G22KT 3SM FEW007 SCT018 06/05 A2955 RMK AO1 PRESRR SLP015
SPECI CYNL 110707Z AUTO 29013G19KT 9SM FEW010 SCT013 BKN068 07/05 A2954 RMK AO1 PRESRR SLP011
METAR CYNL 110700Z AUTO 29011G21KT 9SM SCT013 BKN025 07/06 A2954 RMK AO1 PRESRR SLP011
SPECI CYNL 110657Z AUTO 29012G21KT 9SM SCT013 BKN025 07/06 A2954 RMK AO1 SLP012
SPECI CYNL 110655Z AUTO 29010G21KT 9SM FEW009 SCT013 BKN017 07/06 A2954 RMK AO1 SLP012
SPECI CYNL 110650Z AUTO 29011G22KT 5SM FEW006 BKN012 BKN018 07/06 A2954 RMK AO1 SLP012
SPECI CYNL 110649Z AUTO 29010G22KT 3SM VV015 07/06 A2954 RMK AO1 SLP012
SPECI CYNL 110648Z AUTO 29012G22KT 3SM VV014 07/06 A2954 RMK AO1 SLP012
SPECI CYNL 110647Z AUTO 29013G22KT 2 1/2SM VV015 07/06 A2954 RMK AO1 SLP012
SPECI CYNL 110645Z AUTO 29012G22KT 3SM VV014 07/06 A2954 RMK AO1 SLP012
SPECI CYNL 110641Z AUTO 30009G21KT 2 1/2SM FEW006 SCT009 OVC014 07/06 A2954 RMK AO1 SLP011
SPECI CYNL 110638Z AUTO 30013G21KT 2 1/2SM VV014 07/06 A2954 RMK AO1 SLP011
SPECI CYNL 110636Z AUTO 30013G21KT 3SM VV013 07/07 A2953 RMK AO1 SLP010
SPECI CYNL 110635Z AUTO 30014G21KT 2 1/2SM VV013 07/07 A2953 RMK AO1 SLP010
SPECI CYNL 110633Z AUTO 30013G21KT 1 1/2SM VV013 07/07 A2953 RMK AO1 SLP010
SPECI CYNL 110631Z AUTO 30012G21KT 1 1/4SM SCT006 BKN012 08/07 A2953 RMK AO1 SLP009
SPECI CYNL 110626Z AUTO 30008G22KT 1 1/4SM BKN006 BKN015 08/07 A2953 RMK AO1 SLP007
SPECI CYNL 110623Z AUTO 30012G22KT 1 3/4SM SCT006 BKN009 BKN015 08/07 A2953 RMK AO1 SLP006
SPECI CYNL 110621Z AUTO 30014G22KT 2SM SCT007 BKN009 BKN019 08/07 A2952 RMK AO1 SLP006
SPECI CYNL 110619Z AUTO 30014G22KT 2SM SCT007 BKN012 BKN019 08/07 A2952 RMK AO1 SLP006
SPECI CYNL 110618Z AUTO 30012G20KT 1 3/4SM SCT007 BKN009 BKN019 08/07 A2952 RMK AO1 SLP005
SPECI CYNL 110616Z AUTO 30009G20KT 2 1/2SM SCT007 BKN009 BKN019 08/08 A2952 RMK AO1 SLP004
SPECI CYNL 110614Z AUTO 31011G21KT 3SM FEW007 SCT009 BKN014 08/08 A2952 RMK AO1 SLP004
SPECI CYNL 110610Z AUTO 29010G21KT 2SM FEW007 SCT009 BKN013 09/08 A2952 RMK AO1 SLP002
SPECI CYNL 110609Z AUTO 28010G21KT 2 1/2SM SCT009 BKN015 09/08 A2952 RMK AO1 SLP002
SPECI CYNL 110603Z AUTO 28011G19KT 5SM SCT009 BKN016 09/08 A2951 RMK AO1 SLP002
SPECI CYNL 110601Z AUTO 27013G19KT 3SM SCT009 BKN013 09/08 A2951 RMK AO1 SLP002
METAR CYNL 110600Z AUTO 28012G19KT 2 1/2SM SCT010 BKN013 09/08 A2951 RMK AO1 SLP001
SPECI CYNL 110559Z AUTO 27010G18KT 2 1/2SM SCT010 BKN014 09/08 A2951 RMK AO1 SLP001
SPECI CYNL 110558Z AUTO 27010G18KT 3SM SCT010 BKN015 09/08 A2951 RMK AO1 SLP001
SPECI CYNL 110543Z AUTO 28010G17KT 9SM SCT009 BKN011 09/08 A2951 RMK AO1 SLP000
SPECI CYNL 110526Z AUTO 28009G17KT 9SM SCT011 BKN014 09/08 A2951 RMK AO1 SLP000
SPECI CYNL 110513Z AUTO 28011G18KT 9SM SCT011 BKN018 09/08 A2951 RMK AO1 SLP001
SPECI CYNL 110508Z AUTO 28009G16KT 9SM FEW011 SCT018 BKN074 09/08 A2951 RMK AO1 SLP999
SPECI CYNL 110506Z AUTO 27010G16KT 9SM FEW011 BKN018 09/08 A2951 RMK AO1 SLP999
METAR CYNL 110500Z AUTO 28009G16KT 9SM FEW012 SCT019 09/08 A2951 RMK AO1 SLP000
SPECI CYNL 110422Z AUTO 28008G18KT 6SM FEW009 SCT019 BKN048 09/08 A2951 RMK AO1 SLP999
SPECI CYNL 110418Z AUTO 27012G18KT 7SM FEW008 SCT013 BKN026 09/08 A2951 RMK AO1 SLP000
SPECI CYNL 110415Z AUTO 28008G16KT 9SM FEW008 SCT012 BKN048 09/08 A2951 RMK AO1 SLP000
SPECI CYNL 110413Z AUTO 28009G16KT 9SM FEW008 SCT012 BKN018 09/08 A2951 RMK AO1 SLP000
SPECI CYNL 110402Z AUTO 27010G17KT 3SM FEW008 OVC013 09/09 A2951 RMK AO1 SLP001
METAR CYNL 110400Z AUTO 27010G17KT 2 1/2SM FEW008 OVC012 09/09 A2951 RMK AO1 SLP001
SPECI CYNL 110357Z AUTO 27010G17KT 2SM FEW008 BKN012 OVC014 09/09 A2951 RMK AO1 SLP002
SPECI CYNL 110356Z AUTO 27012G17KT 2SM VV014 09/09 A2951 RMK AO1 SLP002
SPECI CYNL 110355Z AUTO 27011G17KT 1 1/2SM VV013 09/09 A2952 RMK AO1 SLP002
SPECI CYNL 110354Z AUTO 27010G16KT 1 1/4SM VV013 09/09 A2952 RMK AO1 SLP002
SPECI CYNL 110353Z AUTO 28011KT 1 3/4SM VV013 09/09 A2952 RMK AO1 SLP002
SPECI CYNL 110352Z AUTO 28011G16KT 2 1/2SM FEW007 OVC011 09/09 A2952 RMK AO1 SLP002
SPECI CYNL 110348Z AUTO 28010G15KT 4SM FEW006 OVC011 09/09 A2952 RMK AO1 SLP002
SPECI CYNL 110345Z AUTO 28009G15KT 3SM VV012 09/09 A2952 RMK AO1 SLP002
SPECI CYNL 110343Z AUTO 28009G15KT 2SM VV011 09/09 A2952 RMK AO1 SLP002
SPECI CYNL 110342Z AUTO 28009G15KT 1 1/2SM VV011 09/09 A2952 RMK AO1 SLP002
SPECI CYNL 110340Z AUTO 28010G15KT 1SM FEW007 BKN010 OVC012 09/09 A2952 RMK AO1 SLP002
SPECI CYNL 110337Z AUTO 27009G16KT 3/4SM SCT007 OVC011 09/09 A2952 RMK AO1 SLP003
SPECI CYNL 110333Z AUTO 28008G16KT 1 3/4SM SCT007 OVC011 09/09 A2952 RMK AO1 SLP003
SPECI CYNL 110331Z AUTO 28007G16KT 2SM VV011 09/09 A2952 RMK AO1 SLP003
SPECI CYNL 110325Z AUTO 28009G16KT 1 1/2SM SCT007 OVC011 09/09 A2952 RMK AO1 SLP003
SPECI CYNL 110324Z AUTO 27010G16KT 2SM SCT007 OVC012 09/09 A2952 RMK AO1 SLP003
SPECI CYNL 110323Z AUTO 27009G15KT 2 1/2SM BKN007 OVC012 09/09 A2952 RMK AO1 SLP003
SPECI CYNL 110319Z AUTO 28008G15KT 3SM BKN007 OVC012 09/09 A2952 RMK AO1 SLP003
SPECI CYNL 110316Z AUTO 28009G15KT 2SM BKN007 OVC011 09/09 A2952 RMK AO1 SLP003
METAR CYNL 110300Z AUTO 28009G16KT 9SM BKN007 OVC009 09/09 A2952 RMK AO1 SLP004
SPECI CYNL 110205Z AUTO 27007KT 9SM BKN008 OVC011 09/08 A2952 RMK AO1 SLP005
METAR CYNL 110200Z AUTO 27007KT 9SM SCT008 BKN012 09/08 A2952 RMK AO1 SLP005
SPECI CYNL 110153Z AUTO 27007KT 9SM SCT008 BKN010 BKN012 09/08 A2952 RMK AO1 SLP005
SPECI CYNL 110150Z AUTO 27009KT 9SM BKN008 BKN012 09/08 A2952 RMK AO1 SLP005
SPECI CYNL 110148Z AUTO 27007KT 9SM SCT008 BKN010 BKN012 09/08 A2952 RMK AO1 SLP004
SPECI CYNL 110146Z AUTO 26007KT 9SM BKN008 BKN023 09/08 A2952 RMK AO1 SLP004
SPECI CYNL 110134Z AUTO 27009G15KT 9SM SCT008 BKN012 09/08 A2952 RMK AO1 SLP004
SPECI CYNL 110133Z AUTO 27010G15KT 7SM BKN009 09/08 A2952 RMK AO1 SLP004
SPECI CYNL 110132Z AUTO 27009G15KT 6SM SCT008 BKN010 09/08 A2952 RMK AO1 SLP004
SPECI CYNL 110127Z AUTO 27008KT 9SM BKN009 09/08 A2952 RMK AO1 SLP003
SPECI CYNL 110122Z AUTO 28009KT 9SM SCT009 BKN011 09/08 A2952 RMK AO1 SLP004
SPECI CYNL 110119Z AUTO 27008KT 9SM SCT009 09/08 A2952 RMK AO1 SLP004
SPECI CYNL 110114Z AUTO 28008KT 9SM SCT009 BKN011 09/08 A2951 RMK AO1 SLP002
SPECI CYNL 110112Z AUTO 28009KT 9SM BKN009 09/08 A2951 RMK AO1 SLP002
SPECI CYNL 110111Z AUTO 28008KT 9SM SCT009 BKN011 09/08 A2952 RMK AO1 SLP002
SPECI CYNL 110107Z AUTO 27006KT 9SM BKN009 09/08 A2951 RMK AO1 SLP002
SPECI CYNL 110102Z AUTO 27010G16KT 9SM SCT009 09/08 A2951 RMK AO1 SLP002
METAR CYNL 110100Z AUTO 28009G16KT 9SM SCT010 09/08 A2951 RMK AO1 SLP002
SPECI CYNL 110040Z AUTO 28009G23KT 9SM SCT009 BKN045 09/08 A2951 RMK AO1 PRESRR SLP998
SPECI CYNL 110039Z AUTO 29010G23KT 9SM SCT010 BKN045 09/08 A2950 RMK AO1 PRESRR SLP998
SPECI CYNL 110036Z AUTO 28012G23KT 9SM SCT009 BKN011 09/08 A2950 RMK AO1 PRESRR SLP998
SPECI CYNL 110031Z AUTO 28010G18KT 9SM BKN010 BKN013 09/08 A2951 RMK AO1 PRESRR SLP999
SPECI CYNL 110027Z AUTO 28011G19KT 9SM BKN009 BKN012 09/08 A2950 RMK AO1 PRESRR SLP999
SPECI CYNL 110026Z AUTO 28010G19KT 9SM BKN010 BKN013 09/08 A2950 RMK AO1 PRESRR SLP998
SPECI CYNL 110024Z AUTO 29012G19KT 9SM BKN009 BKN012 09/08 A2950 RMK AO1 PRESRR SLP998
METAR CYNL 110000Z AUTO 27007G18KT 8SM SCT008 BKN011 OVC015 10/09 A2950 RMK AO1 PRESRR SLP995
SPECI CYNL 102353Z AUTO 27010G18KT 4SM SCT008 BKN011 OVC015 10/09 A2949 RMK AO1 SLP994
SPECI CYNL 102350Z AUTO 27010G19KT 5SM SCT008 BKN016 10/09 A2949 RMK AO1 SLP993
SPECI CYNL 102349Z AUTO 27010G19KT 5SM SCT008 BKN013 BKN016 10/09 A2949 RMK AO1 SLP993
SPECI CYNL 102346Z AUTO 28008G19KT 6SM FEW008 SCT011 BKN016 10/09 A2949 RMK AO1 SLP992
SPECI CYNL 102326Z AUTO 28009G17KT 3SM FEW008 BKN013 OVC016 10/10 A2948 RMK AO1 SLP989
SPECI CYNL 102325Z AUTO 27010G19KT 3SM VV015 10/10 A2948 RMK AO1 SLP989
SPECI CYNL 102318Z AUTO 28010G19KT 2 1/2SM VV016 11/10 A2948 RMK AO1 SLP988
SPECI CYNL 102315Z AUTO 28011G19KT 2 1/2SM SCT008 BKN012 OVC016 11/10 A2948 RMK AO1 SLP988
SPECI CYNL 102314Z AUTO 28010G18KT 2SM VV016 11/10 A2948 RMK AO1 SLP988
SPECI CYNL 102313Z AUTO 28010G18KT 2SM FEW008 BKN012 OVC016 11/10 A2948 RMK AO1 SLP988
SPECI CYNL 102312Z AUTO 28010G18KT 1 3/4SM VV015 11/10 A2948 RMK AO1 SLP987
SPECI CYNL 102311Z AUTO 28012G18KT 1 3/4SM VV014 11/10 A2948 RMK AO1 SLP987
SPECI CYNL 102307Z AUTO 28010G15KT 2SM VV012 11/11 A2948 RMK AO1 SLP987
SPECI CYNL 102301Z AUTO 28009KT 1 3/4SM VV013 11/11 A2948 RMK AO1 SLP986
METAR CYNL 102300Z AUTO 27010KT 2SM VV013 11/11 A2948 RMK AO1 SLP986
SPECI CYNL 102258Z AUTO 28008KT 2 1/2SM VV012 11/11 A2947 RMK AO1 SLP985
SPECI CYNL 102245Z AUTO 28008KT 3SM FEW007 BKN010 OVC015 11/11 A2948 RMK AO1 SLP985
SPECI CYNL 102242Z AUTO 27008KT 3SM FEW007 BKN009 OVC014 11/11 A2948 RMK AO1 SLP985
SPECI CYNL 102226Z AUTO 27007KT 3SM FEW006 BKN011 BKN015 11/11 A2947 RMK AO1 SLP984
SPECI CYNL 102221Z AUTO 26007G17KT 2 1/2SM FEW006 SCT010 BKN014 11/11 A2947 RMK AO1 SLP984
SPECI CYNL 102220Z AUTO 26007G17KT 3SM FEW006 SCT010 BKN014 11/11 A2947 RMK AO1 SLP984
SPECI CYNL 102217Z AUTO 27008G17KT 3SM VV013 11/11 A2947 RMK AO1 SLP983
SPECI CYNL 102215Z AUTO 26009G17KT 2SM VV012 11/11 A2947 RMK AO1 SLP983
SPECI CYNL 102214Z AUTO 26010G17KT 1 1/2SM FEW007 SCT011 BKN014 11/11 A2947 RMK AO1 SLP983
SPECI CYNL 102209Z AUTO 26008G16KT 1 1/4SM FEW006 SCT010 BKN012 11/11 A2947 RMK AO1 SLP982
SPECI CYNL 102205Z AUTO 26010G16KT 1 3/4SM VV016 12/11 A2947 RMK AO1 SLP982
SPECI CYNL 102204Z AUTO 26010G16KT 2 1/2SM VV017 12/11 A2947 RMK AO1 SLP982
SPECI CYNL 102203Z AUTO 26011G16KT 3SM VV018 12/11 A2947 RMK AO1 SLP982
METAR CYNL 102200Z AUTO 26010G16KT 2SM VV017 12/11 A2947 RMK AO1 SLP982
SPECI CYNL 102156Z AUTO 26009G16KT 2 1/2SM VV015 12/11 A2946 RMK AO1 SLP980
SPECI CYNL 102155Z AUTO 26010G16KT 2 1/2SM VV014 12/11 A2946 RMK AO1 SLP980
SPECI CYNL 102154Z AUTO 26009G16KT 3SM VV014 12/11 A2946 RMK AO1 SLP980
SPECI CYNL 102151Z AUTO 27007G16KT 4SM VV015 12/11 A2946 RMK AO1 SLP980
SPECI CYNL 102149Z AUTO 26010G16KT 3SM VV014 12/11 A2946 RMK AO1 SLP980
SPECI CYNL 102147Z AUTO 27010G16KT 2SM VV013 12/11 A2946 RMK AO1 SLP980
SPECI CYNL 102144Z AUTO 26008KT 1 3/4SM VV013 12/11 A2946 RMK AO1 SLP980
SPECI CYNL 102140Z AUTO 26007KT 2SM VV011 12/11 A2946 RMK AO1 SLP980
SPECI CYNL 102139Z AUTO 26006KT 1 3/4SM VV011 12/11 A2946 RMK AO1 SLP980
SPECI CYNL 102138Z AUTO 26006KT 2SM VV011 12/11 A2946 RMK AO1 SLP980
SPECI CYNL 102132Z AUTO 26007KT 1 1/2SM VV010 11/11 A2946 RMK AO1 SLP979
SPECI CYNL 102129Z AUTO 26007KT 1 1/4SM VV010 11/11 A2946 RMK AO1 SLP979
SPECI CYNL 102126Z AUTO 26006KT 1 3/4SM VV011 11/11 A2946 RMK AO1 SLP979
SPECI CYNL 102122Z AUTO 26007KT 2SM VV014 11/11 A2946 RMK AO1 SLP979
SPECI CYNL 102121Z AUTO 26007KT 2SM VV016 11/11 A2946 RMK AO1 SLP979
SPECI CYNL 102117Z AUTO 26007KT 1 3/4SM VV022 11/11 A2946 RMK AO1 SLP979
SPECI CYNL 102110Z AUTO 26005KT 2SM VV015 11/11 A2946 RMK AO1 SLP979
SPECI CYNL 102103Z AUTO 26006KT 2 1/2SM FEW007 BKN010 OVC013 11/11 A2946 RMK AO1 SLP979
METAR CYNL 102100Z AUTO 26005KT 2SM VV010 11/11 A2946 RMK AO1 SLP979
SPECI CYNL 102056Z AUTO 26007KT 2 1/2SM VV010 11/11 A2946 RMK AO1 SLP977
SPECI CYNL 102051Z AUTO 26005KT 3SM VV009 11/11 A2946 RMK AO1 SLP977
SPECI CYNL 102048Z AUTO 25005KT 2 1/2SM VV009 11/11 A2946 RMK AO1 SLP977
SPECI CYNL 102034Z AUTO 23003KT 2 1/2SM VV011 10/10 A2946 RMK AO1 SLP977
SPECI CYNL 102033Z AUTO 23003KT 3SM VV011 10/10 A2946 RMK AO1 SLP977
SPECI CYNL 102016Z AUTO 22003KT 2SM VV010 10/10 A2946 RMK AO1 SLP977
SPECI CYNL 102015Z AUTO 22003KT 1 3/4SM VV011 10/10 A2946 RMK AO1 SLP977
SPECI CYNL 102013Z AUTO 22004KT 2 1/2SM VV010 10/10 A2946 RMK AO1 SLP977
SPECI CYNL 102009Z AUTO 22003KT 3SM VV010 10/10 A2945 RMK AO1 SLP977
SPECI CYNL 102008Z AUTO 22003KT 2 1/2SM VV010 10/10 A2945 RMK AO1 SLP977
SPECI CYNL 102004Z AUTO 21003KT 2 1/2SM VV009 10/10 A2945 RMK AO1 SLP976
METAR CYNL 102000Z AUTO 21003KT 3SM VV006 10/10 A2945 RMK AO1 SLP977
SPECI CYNL 101950Z AUTO 20003KT 3SM VV009 10/10 A2946 RMK AO1 SLP977
SPECI CYNL 101949Z AUTO 20003KT 2 1/2SM VV009 10/10 A2946 RMK AO1 SLP977
SPECI CYNL 101945Z AUTO 21003KT 2SM VV011 10/10 A2946 RMK AO1 SLP977
SPECI CYNL 101941Z AUTO 20003KT 1 3/4SM VV011 10/10 A2946 RMK AO1 SLP978
SPECI CYNL 101937Z AUTO 22003KT 2SM VV010 10/10 A2946 RMK AO1 SLP978
SPECI CYNL 101936Z AUTO 22003KT 1 3/4SM VV010 10/10 A2946 RMK AO1 SLP978
SPECI CYNL 101934Z AUTO 21002KT 1 3/4SM VV009 10/10 A2946 RMK AO1 SLP978
SPECI CYNL 101932Z AUTO 22002KT 2 1/2SM VV008 10/10 A2946 RMK AO1 SLP978
SPECI CYNL 101930Z AUTO 00000KT 3SM VV007 10/10 A2946 RMK AO1 SLP978
SPECI CYNL 101921Z AUTO 00000KT 2 1/2SM VV005 09/09 A2946 RMK AO1 SLP977
METAR CYNL 101900Z AUTO 00000KT 4SM VV006 09/09 A2945 RMK AO1 SLP976
SPECI CYNL 101836Z AUTO 02002KT 3SM VV005 09/09 A2945 RMK AO1 SLP975
SPECI CYNL 101835Z AUTO 02002KT 2 1/2SM VV005 09/09 A2945 RMK AO1 SLP976
SPECI CYNL 101827Z AUTO 00000KT 3SM VV005 09/09 A2945 RMK AO1 SLP977
METAR CYNL 101800Z AUTO 00000KT 5SM OVC003 09/09 A2946 RMK AO1 SLP980
SPECI CYNL 101759Z AUTO 00000KT 3SM OVC002 09/09 A2946 RMK AO1 SLP980
SPECI CYNL 101756Z AUTO 00000KT 2 1/2SM OVC002 09/09 A2946 RMK AO1 SLP979
SPECI CYNL 101728Z AUTO 04003KT 9SM BKN002 OVC005 09/09 A2947 RMK AO1 SLP981
SPECI CYNL 101719Z AUTO 03003KT 9SM BKN003 OVC005 09/09 A2947 RMK AO1 SLP981
SPECI CYNL 101703Z AUTO 06004KT 8SM SCT003 OVC005 09/09 A2947 RMK AO1 SLP984
METAR CYNL 101700Z AUTO 07004KT 6SM BKN003 OVC005 09/09 A2948 RMK AO1 SLP985
SPECI CYNL 101658Z AUTO 08004KT 6SM BKN003 OVC005 09/09 A2948 RMK AO1 SLP985
SPECI CYNL 101657Z AUTO 10004KT 6SM VV005 09/09 A2948 RMK AO1 PRESFR SLP986
SPECI CYNL 101648Z AUTO 11004KT 3SM OVC003 09/09 A2949 RMK AO1 PRESFR SLP988
SPECI CYNL 101646Z AUTO 12003KT 2 1/2SM OVC003 09/09 A2949 RMK AO1 PRESFR SLP988
METAR CYNL 101600Z AUTO 07006KT 6SM BKN004 OVC006 09/09 A2950 RMK AO1 PRESFR SLP991
SPECI CYNL 101539Z AUTO 06005KT 7SM BKN004 OVC006 09/09 A2950 RMK AO1 PRESFR SLP993
SPECI CYNL 101534Z AUTO 05005KT 7SM VV005 09/09 A2950 RMK AO1 PRESFR SLP994
SPECI CYNL 101533Z AUTO 05004KT 6SM VV004 09/09 A2950 RMK AO1 PRESFR SLP994
SPECI CYNL 101532Z AUTO 06004KT 6SM VV005 09/09 A2951 RMK AO1 PRESFR SLP995
SPECI CYNL 101531Z AUTO 06005KT 5SM VV004 09/09 A2951 RMK AO1 PRESFR SLP995
SPECI CYNL 101506Z AUTO 08005KT 3SM VV009 08/08 A2952 RMK AO1 PRESFR SLP001
SPECI CYNL 101505Z AUTO 08005KT 3SM VV010 08/08 A2952 RMK AO1 PRESFR SLP001
SPECI CYNL 101501Z AUTO 08005KT 2 1/2SM VV010 08/08 A2953 RMK AO1 PRESFR SLP001
METAR CYNL 101500Z AUTO 08005KT 2 1/2SM VV009 08/08 A2953 RMK AO1 PRESFR SLP001
SPECI CYNL 101456Z AUTO 08006KT 2SM VV007 08/08 A2953 RMK AO1 SLP001
SPECI CYNL 101455Z AUTO 08006KT 1 3/4SM VV008 08/08 A2953 RMK AO1 SLP001
SPECI CYNL 101444Z AUTO 09007KT 2SM VV006 08/08 A2953 RMK AO1 SLP001
SPECI CYNL 101431Z AUTO 10006KT 1 3/4SM VV005 08/08 A2954 RMK AO1 SLP007
SPECI CYNL 101430Z AUTO 11005KT 2SM VV004 09/08 A2954 RMK AO1 SLP007
SPECI CYNL 101427Z AUTO 11008KT 1 3/4SM VV004 09/08 A2954 RMK AO1 SLP007
SPECI CYNL 101424Z AUTO 10007KT 2 1/2SM OVC004 09/08 A2954 RMK AO1 SLP007
SPECI CYNL 101423Z AUTO 10008KT 3SM OVC004 09/08 A2954 RMK AO1 SLP006
SPECI CYNL 101414Z AUTO 10009G15KT 3SM BKN005 OVC008 09/08 A2954 RMK AO1 SLP006
SPECI CYNL 101413Z AUTO 10010G15KT 3SM VV004 09/08 A2954 RMK AO1 SLP006
SPECI CYNL 101403Z AUTO 09008KT 3SM VV005 09/08 A2954 RMK AO1 SLP008
METAR CYNL 101400Z AUTO 09007KT 2 1/2SM VV006 09/08 A2955 RMK AO1 SLP009
SPECI CYNL 101357Z AUTO 10008KT 2 1/2SM VV007 09/08 A2955 RMK AO1 SLP009
SPECI CYNL 101349Z AUTO 09010KT 3SM VV006 08/08 A2955 RMK AO1 SLP009
SPECI CYNL 101346Z AUTO 09011KT 2 1/2SM VV006 09/08 A2954 RMK AO1 SLP007
METAR CYNL 101300Z AUTO 09010G16KT 9SM OVC006 09/08 A2955 RMK AO1 SLP009
METAR CYNL 101200Z AUTO 07015G21KT 5SM BKN006 OVC008 09/08 A2956 RMK AO1 PRESFR SLP013
SPECI CYNL 101154Z AUTO 07014G22KT 3SM VV006 09/08 A2957 RMK AO1 SLP015
SPECI CYNL 101141Z AUTO 08014G19KT 2 1/2SM VV006 09/08 A2961 RMK AO1 SLP027
METAR CYNL 101100Z AUTO 06011G18KT 9SM OVC007 09/08 A2962 RMK AO1 SLP031
METAR CYNL 101000Z AUTO 06008G18KT 9SM OVC008 11/09 A2963 RMK AO1 SLP034
METAR CYNL 100900Z AUTO 07011G17KT 9SM BKN009 OVC011 12/10 A2965 RMK AO1 SLP039
SPECI CYNL 100858Z AUTO 08014KT 9SM BKN009 OVC011 12/10 A2965 RMK AO1 SLP039
METAR CYNL 100800Z AUTO 07014G19KT 9SM OVC010 12/10 A2965 RMK AO1 PRESFR SLP037
METAR CYNL 100700Z AUTO 05012KT 9SM OVC013 12/10 A2969 RMK AO1 PRESFR SLP052
SPECI CYNL 100632Z AUTO 07012KT 9SM OVC014 12/09 A2970 RMK AO1 PRESFR SLP058
METAR CYNL 100600Z AUTO 05011G20KT 9SM OVC017 13/09 A2972 RMK AO1 PRESFR SLP062
METAR CYNL 100500Z AUTO 06011G18KT 9SM OVC024 13/09 A2974 RMK AO1 PRESFR SLP070
SPECI CYNL 100451Z AUTO 07014G19KT 9SM OVC024 13/09 A2974 RMK AO1 SLP071
METAR CYNL 100400Z AUTO 05012G20KT 9SM OVC027 13/09 A2976 RMK AO1 SLP078
SPECI CYNL 100318Z AUTO 06012G19KT 9SM OVC029 13/09 A2977 RMK AO1 PRESFR SLP081
METAR CYNL 100300Z AUTO 06011G20KT 9SM BKN031 14/09 A2977 RMK AO1 PRESFR SLP083
METAR CYNL 100200Z AUTO 05012KT 9SM CLR 14/10 A2980 RMK AO1 SLP090
METAR CYNL 100100Z AUTO 04010G17KT 9SM FEW058 14/10 A2980 RMK AO1 SLP092
METAR CYNL 100000Z AUTO 04011G17KT 9SM FEW060 15/10 A2981 RMK AO1 SLP095
METAR CYNL 092300Z AUTO 05012KT 9SM CLR 16/08 A2982 RMK AO1 SLP098
METAR CYNL 092200Z AUTO 05011KT 9SM CLR 16/08 A2983 RMK AO1 SLP099
METAR CYNL 092100Z AUTO 07012KT 9SM CLR 15/07 A2983 RMK AO1 PRESFR SLP100
METAR CYNL 092000Z AUTO 07010G17KT 9SM CLR 15/09 A2985 RMK AO1 SLP110
METAR CYNL 091900Z AUTO 06011KT 9SM BKN054 14/09 A2987 RMK AO1 SLP113
METAR CYNL 091800Z AUTO 06008KT 9SM CLR 13/10 A2988 RMK AO1 PRESFR SLP118
METAR CYNL 091700Z AUTO 34005KT 9SM BKN056 12/10 A2994 RMK AO1 PRESRR SLP138
METAR CYNL 091600Z AUTO 02006KT 9SM BKN056 12/10 A2990 RMK AO1 PRESRR SLP125
METAR CYNL 091500Z AUTO 05006KT 9SM FEW094 12/10 A2988 RMK AO1 SLP116
METAR CYNL 091400Z AUTO 04006KT 9SM CLR 12/10 A2988 RMK AO1 SLP114
METAR CYNL 091300Z AUTO 01004KT 9SM FEW080 11/10 A2989 RMK AO1 SLP115
METAR CYNL 091200Z AUTO 35004KT 8SM FEW007 SCT038 11/10 A2987 RMK AO1 SLP110
SPECI CYNL 091156Z AUTO 34004KT 6SM FEW007 SCT034 11/10 A2987 RMK AO1 SLP109
SPECI CYNL 091153Z AUTO 34003KT 4SM VV021 11/10 A2987 RMK AO1 SLP107
SPECI CYNL 091141Z AUTO 34004KT 4SM FEW007 11/10 A2987 RMK AO1 SLP108
SPECI CYNL 091139Z AUTO 34004KT 2 1/2SM FEW007 11/10 A2987 RMK AO1 SLP108
SPECI CYNL 091136Z AUTO 34003KT 2 1/2SM FEW033 11/10 A2987 RMK AO1 SLP107
METAR CYNL 091100Z AUTO 34003KT 6SM BKN056 11/10 A2987 RMK AO1 SLP107
METAR CYNL 091000Z AUTO 34003KT 9SM CLR 11/10 A2985 RMK AO1 SLP100
METAR CYNL 090900Z AUTO 33003KT 9SM CLR 11/09 A2986 RMK AO1 SLP102
SPECI CYNL 090825Z AUTO 33003KT 3SM FEW014 SCT036 BKN058 12/09 A2986 RMK AO1 SLP103
SPECI CYNL 090820Z AUTO 33003KT 2 1/2SM FEW014 SCT035 BKN052 12/09 A2986 RMK AO1 SLP102
SPECI CYNL 090801Z AUTO 31005KT 3SM FEW015 SCT078 13/08 A2986 RMK AO1 SLP101
METAR CYNL 090800Z AUTO 32005KT 2 1/2SM FEW016 SCT078 13/08 A2986 RMK AO1 SLP100
SPECI CYNL 090759Z AUTO 32005KT 2 1/2SM FEW016 SCT078 13/08 A2986 RMK AO1 SLP100
METAR CYNL 090700Z AUTO 32004KT 9SM CLR 14/06 A2984 RMK AO1 SLP094
METAR CYNL 090600Z AUTO 32005KT 9SM CLR 14/06 A2982 RMK AO1 SLP088
METAR CYNL 090500Z AUTO 32005KT 8SM CLR 15/06 A2981 RMK AO1 SLP084
METAR CYNL 090400Z AUTO 32005KT 7SM CLR 17/06 A2980 RMK AO1 SLP081
METAR CYNL 090300Z AUTO 32007KT 9SM CLR 18/07 A2979 RMK AO1 SLP077
METAR CYNL 090200Z AUTO 33004KT 9SM CLR 19/09 A2977 RMK AO1 SLP071
METAR CYNL 090100Z AUTO 32004KT 9SM CLR 21/12 A2976 RMK AO1 SLP068
METAR CYNL 090000Z AUTO 30004KT 8SM CLR 22/12 A2975 RMK AO1 SLP064
METAR CYNL 082300Z AUTO 27004KT 9SM CLR 24/11 A2975 RMK AO1 SLP062
METAR CYNL 082200Z AUTO 24005KT 6SM CLR 24/11 A2974 RMK AO1 SLP059
METAR CYNL 082100Z AUTO 24008KT 7SM CLR 24/11 A2975 RMK AO1 SLP062
SPECI CYNL 082022Z AUTO 23008KT 3SM CLR 24/10 A2975 RMK AO1 SLP062
SPECI CYNL 082020Z AUTO 23006KT 2 1/2SM CLR 24/11 A2975 RMK AO1 SLP062
SPECI CYNL 082018Z AUTO 24006KT 3SM CLR 24/11 A2975 RMK AO1 SLP062
METAR CYNL 082000Z AUTO 23007KT 2 1/2SM CLR 23/10 A2975 RMK AO1 SLP063
SPECI CYNL 081954Z AUTO 24006KT 2 1/2SM CLR 23/10 A2975 RMK AO1 SLP063
METAR CYNL 081900Z AUTO 22009KT 7SM CLR 22/10 A2975 RMK AO1 SLP062
METAR CYNL 081800Z AUTO 22011G17KT 7SM CLR 22/09 A2975 RMK AO1 SLP061
METAR CYNL 081700Z AUTO 22010G20KT 7SM CLR 21/10 A2974 RMK AO1 SLP059
METAR CYNL 081600Z AUTO 22010G20KT 6SM CLR 19/10 A2974 RMK AO1 SLP063
METAR CYNL 081500Z AUTO 21008G15KT 5SM CLR 17/10 A2975 RMK AO1 SLP066
METAR CYNL 081400Z AUTO 21010KT 5SM CLR 16/10 A2975 RMK AO1 SLP065
METAR CYNL 081300Z AUTO 21010KT 4SM CLR 15/10 A2976 RMK AO1 SLP069
METAR CYNL 081200Z AUTO 21009KT 5SM CLR 15/10 A2977 RMK AO1 SLP073
METAR CYNL 081100Z AUTO 20007KT 5SM CLR 15/10 A2978 RMK AO1 SLP076
METAR CYNL 081000Z AUTO 20006KT 5SM CLR 14/10 A2980 RMK AO1 SLP080
METAR CYNL 080900Z AUTO 20009KT 4SM CLR 15/10 A2981 RMK AO1 SLP083
METAR CYNL 080800Z AUTO 21007KT 4SM CLR 15/09 A2982 RMK AO1 SLP084
METAR CYNL 080700Z AUTO 21010G16KT 5SM CLR 16/09 A2982 RMK AO1 SLP085
METAR CYNL 080600Z AUTO 19011KT 5SM CLR 16/09 A2981 RMK AO1 PRESFR SLP084
METAR CYNL 080500Z AUTO 19008KT 4SM CLR 16/09 A2983 RMK AO1 SLP091
METAR CYNL 080400Z AUTO 19009KT 3SM CLR 16/10 A2984 RMK AO1 SLP097
SPECI CYNL 080334Z AUTO 18008KT 3SM CLR 17/10 A2985 RMK AO1 SLP100
SPECI CYNL 080330Z AUTO 18007KT 2 1/2SM CLR 17/10 A2985 RMK AO1 SLP101
SPECI CYNL 080320Z AUTO 18009KT 3SM CLR 17/10 A2985 RMK AO1 SLP101
METAR CYNL 080300Z AUTO 18009KT 2 1/2SM CLR 18/10 A2986 RMK AO1 SLP102
METAR CYNL 080200Z AUTO 18009KT 2 1/2SM CLR 18/10 A2986 RMK AO1 SLP106
METAR CYNL 080100Z AUTO 17006KT 2 1/2SM CLR 19/10 A2988 RMK AO1 SLP113
SPECI CYNL 080018Z AUTO 18008KT 2 1/2SM CLR 21/10 A2989 RMK AO1 SLP119
METAR CYNL 080000Z AUTO 18009G15KT 3SM CLR 21/10 A2988 RMK AO1 SLP118
METAR CYNL 072300Z AUTO 17010KT 4SM CLR 21/10 A2990 RMK AO1 PRESFR SLP125
METAR CYNL 072200Z AUTO 18008G15KT 9SM CLR 22/09 A2993 RMK AO1 PRESFR SLP133
METAR CYNL 072100Z AUTO 18012KT 9SM CLR 23/08 A2995 RMK AO1 SLP139
METAR CYNL 072000Z AUTO 19008KT 9SM CLR 22/09 A2997 RMK AO1 PRESFR SLP145
METAR CYNL 071900Z AUTO 19012G17KT 9SM CLR 21/09 A2999 RMK AO1 PRESFR SLP153
METAR CYNL 071800Z AUTO 18007G16KT 9SM CLR 20/09 A3001 RMK AO1 PRESFR SLP161
METAR CYNL 071700Z AUTO 18007KT 9SM CLR 18/09 A3004 RMK AO1 SLP171
METAR CYNL 071600Z AUTO 17007KT 9SM CLR 17/09 A3004 RMK AO1 SLP175
METAR CYNL 071500Z AUTO 19004KT 9SM CLR 14/09 A3005 RMK AO1 SLP179
METAR CYNL 071400Z AUTO 17005KT 9SM CLR 11/09 A3006 RMK AO1 SLP181
METAR CYNL 071300Z AUTO 00000KT 9SM CLR 06/05 A3006 RMK AO1 SLP184
METAR CYNL 071200Z AUTO 00000KT 9SM CLR 05/05 A3005 RMK AO1 SLP179
SPECI CYNL 071146Z AUTO VRB03KT 8SM CLR 05/05 A3006 RMK AO1 SLP180
SPECI CYNL 071145Z AUTO 18003KT 130V240 1 3/4SM CLR 05/05 A3006 RMK AO1 SLP180
SPECI CYNL 071144Z AUTO 18003KT 130V240 3/4SM CLR 05/05 A3006 RMK AO1 SLP180
SPECI CYNL 071143Z AUTO 18003KT 130V240 5/8SM CLR 05/05 A3006 RMK AO1 SLP180
SPECI CYNL 071142Z AUTO 18003KT 130V240 1SM CLR 05/05 A3006 RMK AO1 SLP180
SPECI CYNL 071120Z AUTO 21003KT 7SM CLR 06/06 A3006 RMK AO1 SLP179
SPECI CYNL 071119Z AUTO 21003KT 1/2SM CLR 06/06 A3006 RMK AO1 SLP179
SPECI CYNL 071107Z AUTO 21003KT 1/8SM CLR 06/06 A3005 RMK AO1 SLP178
SPECI CYNL 071106Z AUTO 22004KT 3/8SM CLR 06/06 A3005 RMK AO1 SLP178
METAR CYNL 071100Z AUTO 21003KT 9SM CLR 06/06 A3005 RMK AO1 SLP178
METAR CYNL 071000Z AUTO 00000KT 9SM CLR 06/06 A3005 RMK AO1 SLP176
SPECI CYNL 070930Z AUTO 00000KT 3SM CLR 06/05 A3005 RMK AO1 SLP176
SPECI CYNL 070929Z AUTO 00000KT 3/4SM CLR 06/05 A3005 RMK AO1 SLP176
SPECI CYNL 070928Z AUTO 00000KT 5/8SM CLR 06/05 A3005 RMK AO1 SLP176
SPECI CYNL 070927Z AUTO 00000KT 1SM CLR 06/05 A3005 RMK AO1 SLP176
METAR CYNL 070900Z AUTO 00000KT 9SM CLR 07/06 A3005 RMK AO1 SLP174
METAR CYNL 070800Z AUTO 00000KT 9SM CLR 07/07 A3005 RMK AO1 SLP174
METAR CYNL 070700Z AUTO 25004KT 9SM CLR 08/07 A3004 RMK AO1 SLP172
METAR CYNL 070600Z AUTO 00000KT 9SM CLR 08/08 A3003 RMK AO1 SLP169
METAR CYNL 070500Z AUTO 00000KT 9SM CLR 09/08 A3003 RMK AO1 SLP169
METAR CYNL 070400Z AUTO 00000KT 9SM CLR 10/09 A3003 RMK AO1 SLP167
METAR CYNL 070300Z AUTO 32004KT 9SM CLR 12/08 A3002 RMK AO1 SLP166
METAR CYNL 070200Z AUTO 31002KT 9SM CLR 15/09 A3001 RMK AO1 SLP161
METAR CYNL 070100Z AUTO 33003KT 9SM CLR 19/08 A3000 RMK AO1 SLP156
METAR CYNL 070000Z AUTO 33006KT 9SM CLR 20/07 A3000 RMK AO1 SLP156
METAR CYNL 062300Z AUTO 33008KT 9SM CLR 20/07 A3000 RMK AO1 SLP153
METAR CYNL 062200Z AUTO 31005KT 9SM CLR 20/07 A2999 RMK AO1 SLP151
METAR CYNL 062100Z AUTO 33008KT 9SM CLR 20/07 A2999 RMK AO1 SLP152
METAR CYNL 062000Z AUTO 35007KT 9SM CLR 20/07 A2998 RMK AO1 SLP151
METAR CYNL 061900Z AUTO 33006KT 9SM CLR 19/08 A2997 RMK AO1 SLP149
METAR CYNL 061800Z AUTO 35008KT 9SM CLR 18/08 A2997 RMK AO1 SLP146
METAR CYNL 061700Z AUTO 33009KT 9SM CLR 17/08 A2997 RMK AO1 SLP145
METAR CYNL 061600Z AUTO 34007KT 9SM CLR 15/09 A2996 RMK AO1 SLP144
METAR CYNL 061500Z AUTO 31006KT 9SM CLR 13/09 A2995 RMK AO1 SLP142
METAR CYNL 061400Z AUTO 32005KT 9SM CLR 11/08 A2995 RMK AO1 SLP144
METAR CYNL 061300Z AUTO 30007KT 9SM CLR 11/08 A2995 RMK AO1 SLP143
METAR CYNL 061200Z AUTO 30006KT 9SM CLR 11/08 A2995 RMK AO1 SLP144
METAR CYNL 061100Z AUTO 30005KT 9SM CLR 11/08 A2995 RMK AO1 SLP142
METAR CYNL 061000Z AUTO 29005KT 9SM CLR 11/07 A2994 RMK AO1 SLP140
METAR CYNL 060900Z AUTO 25004KT 9SM CLR 09/07 A2994 RMK AO1 SLP143
SPECI CYNL 060815Z AUTO 26003KT 3SM CLR 09/07 A2995 RMK AO1 SLP146
SPECI CYNL 060813Z AUTO 25003KT 2SM CLR 09/07 A2995 RMK AO1 SLP146
SPECI CYNL 060811Z AUTO 24003KT 1SM CLR 08/07 A2995 RMK AO1 SLP146
SPECI CYNL 060810Z AUTO 23003KT 3/4SM CLR 09/07 A2995 RMK AO1 SLP146
SPECI CYNL 060809Z AUTO 23003KT 1SM CLR 09/07 A2995 RMK AO1 SLP146
SPECI CYNL 060808Z AUTO 22002KT 1 1/2SM CLR 09/07 A2995 RMK AO1 SLP146
METAR CYNL 060800Z AUTO 21003KT 9SM CLR 09/07 A2995 RMK AO1 SLP146
SPECI CYNL 060756Z AUTO 21003KT 4SM CLR 09/07 A2995 RMK AO1 SLP146
SPECI CYNL 060755Z AUTO 21003KT 2SM CLR 09/07 A2995 RMK AO1 SLP146
SPECI CYNL 060754Z AUTO 21003KT 1 3/4SM CLR 09/07 A2995 RMK AO1 SLP147
SPECI CYNL 060752Z AUTO 21003KT 2SM CLR 09/07 A2996 RMK AO1 SLP147
SPECI CYNL 060750Z AUTO 20003KT 1 1/4SM CLR 09/07 A2996 RMK AO1 SLP147
SPECI CYNL 060748Z AUTO 21002KT 2 1/2SM CLR 09/07 A2996 RMK AO1 SLP147
METAR CYNL 060700Z AUTO 00000KT 9SM SCT068 12/07 A2997 RMK AO1 SLP148
METAR CYNL 060600Z AUTO 19004KT 9SM SCT086 13/06 A2998 RMK AO1 PRESFR SLP151
METAR CYNL 060500Z AUTO 19006KT 9SM BKN076 14/06 A3001 RMK AO1 PRESFR SLP160
METAR CYNL 060400Z AUTO 19006KT 9SM BKN078 14/06 A3003 RMK AO1 SLP168
METAR CYNL 060300Z AUTO 18006KT 9SM BKN080 13/08 A3004 RMK AO1 SLP174
METAR CYNL 060200Z AUTO 16006KT 9SM FEW084 SCT098 13/09 A3006 RMK AO1 PRESFR SLP183
METAR CYNL 060100Z AUTO 13005KT 9SM CLR 14/08 A3009 RMK AO1 SLP192
METAR CYNL 060000Z AUTO 12006KT 9SM CLR 14/07 A3010 RMK AO1 SLP199
METAR CYNL 052300Z AUTO 11005KT 9SM CLR 15/07 A3012 RMK AO1 SLP205
METAR CYNL 052200Z AUTO 15002KT 9SM FEW086 15/06 A3014 RMK AO1 SLP211
METAR CYNL 052100Z AUTO 18002KT 9SM BKN068 14/06 A3016 RMK AO1 SLP217
METAR CYNL 052000Z AUTO 24002KT 9SM SCT080 14/06 A3017 RMK AO1 SLP221
METAR CYNL 051900Z AUTO 24006KT 210V270 9SM FEW092 14/05 A3018 RMK AO1 SLP224
METAR CYNL 051800Z AUTO 26004KT 9SM SCT082 13/06 A3019 RMK AO1 SLP230
METAR CYNL 051700Z AUTO 27004KT 9SM FEW096 13/07 A3021 RMK AO1 SLP235
METAR CYNL 051600Z AUTO 27006KT 9SM FEW110 11/07 A3023 RMK AO1 SLP243
METAR CYNL 051500Z AUTO 27004KT 9SM CLR 10/08 A3023 RMK AO1 SLP246
METAR CYNL 051400Z AUTO 27004KT 9SM BKN120 09/08 A3023 RMK AO1 SLP246
METAR CYNL 051300Z AUTO 26002KT 9SM FEW130 08/08 A3023 RMK AO1 SLP247
METAR CYNL 051200Z AUTO 29003KT 9SM FEW140 08/07 A3024 RMK AO1 SLP250
METAR CYNL 051100Z AUTO 29003KT 9SM FEW180 08/07 A3024 RMK AO1 SLP245
METAR CYNL 051000Z AUTO 28003KT 9SM CLR 08/07 A3024 RMK AO1 SLP244
METAR CYNL 050900Z AUTO 26003KT 9SM BKN044 08/07 A3025 RMK AO1 SLP248
METAR CYNL 050800Z AUTO 27004KT 9SM OVC044 09/08 A3024 RMK AO1 SLP244
METAR CYNL 050700Z AUTO 28004KT 9SM OVC040 09/08 A3024 RMK AO1 SLP243
METAR CYNL 050600Z AUTO 26003KT 9SM FEW029 OVC042 09/08 A3024 RMK AO1 SLP248
SPECI CYNL 050543Z AUTO 28003KT 9SM SCT028 BKN047 09/08 A3024 RMK AO1 SLP249
SPECI CYNL 050537Z AUTO 27004KT 9SM BKN028 09/08 A3024 RMK AO1 SLP249
METAR CYNL 050500Z AUTO 28004KT 9SM FEW025 09/08 A3024 RMK AO1 SLP247
METAR CYNL 050400Z AUTO 29006KT 9SM CLR 09/08 A3024 RMK AO1 SLP249
SPECI CYNL 050329Z AUTO 29006KT 9SM FEW007 SCT022 BKN052 10/09 A3024 RMK AO1 SLP249
SPECI CYNL 050326Z AUTO 29007KT 4SM FEW010 SCT022 BKN030 10/09 A3024 RMK AO1 SLP249
SPECI CYNL 050325Z AUTO 29007KT 2SM VV012 10/09 A3024 RMK AO1 SLP248
SPECI CYNL 050323Z AUTO 28007KT 1 1/4SM VV013 10/09 A3024 RMK AO1 SLP248
SPECI CYNL 050322Z AUTO 28006KT 1 1/2SM VV014 10/09 A3024 RMK AO1 SLP248
SPECI CYNL 050320Z AUTO 29006KT 1 3/4SM VV016 10/09 A3024 RMK AO1 SLP249
SPECI CYNL 050319Z AUTO 29007KT 2SM VV018 10/09 A3024 RMK AO1 SLP249
SPECI CYNL 050317Z AUTO 29006KT 4SM VV024 10/09 A3024 RMK AO1 SLP249
SPECI CYNL 050316Z AUTO 29007KT 3SM VV025 10/09 A3024 RMK AO1 SLP249
SPECI CYNL 050314Z AUTO 29007KT 2SM SCT027 BKN045 10/09 A3024 RMK AO1 SLP249
METAR CYNL 050300Z AUTO 28007KT 9SM FEW019 SCT026 BKN043 10/09 A3024 RMK AO1 SLP249
SPECI CYNL 050251Z AUTO 29006KT 9SM FEW009 BKN027 OVC033 10/09 A3024 RMK AO1 SLP248
SPECI CYNL 050249Z AUTO 30007KT 4SM VV026 10/09 A3024 RMK AO1 SLP248
SPECI CYNL 050246Z AUTO 30010KT 2SM VV027 10/09 A3024 RMK AO1 SLP249
SPECI CYNL 050238Z AUTO 30009KT 1 1/2SM VV026 10/09 A3024 RMK AO1 SLP248
SPECI CYNL 050237Z AUTO 31008KT 2SM VV025 10/09 A3024 RMK AO1 SLP248
SPECI CYNL 050234Z AUTO 32008KT 4SM VV026 10/09 A3024 RMK AO1 SLP247
SPECI CYNL 050232Z AUTO 31007KT 2SM VV026 10/09 A3024 RMK AO1 SLP247
SPECI CYNL 050228Z AUTO 31007KT 1 3/4SM BKN026 10/09 A3024 RMK AO1 SLP247
SPECI CYNL 050227Z AUTO 31007KT 2 1/2SM BKN026 10/09 A3024 RMK AO1 SLP247
SPECI CYNL 050225Z AUTO 30006KT 9SM BKN026 10/09 A3024 RMK AO1 SLP247
SPECI CYNL 050207Z AUTO 30008G16KT 7SM FEW008 SCT028 10/09 A3024 RMK AO1 SLP245
SPECI CYNL 050206Z AUTO 31008G16KT 4SM VV029 10/09 A3024 RMK AO1 SLP245
SPECI CYNL 050205Z AUTO 30010G16KT 2 1/2SM VV028 10/08 A3024 RMK AO1 SLP245
SPECI CYNL 050203Z AUTO 30011G16KT 1 1/2SM VV031 10/08 A3024 RMK AO1 SLP246
SPECI CYNL 050202Z AUTO 31010G16KT 1 1/2SM VV027 10/09 A3024 RMK AO1 SLP246
SPECI CYNL 050201Z AUTO 31008KT 1 3/4SM FEW018 SCT036 10/09 A3024 RMK AO1 SLP246
METAR CYNL 050200Z AUTO 31008KT 2 1/2SM FEW018 SCT037 10/09 A3024 RMK AO1 SLP247
METAR CYNL 050100Z AUTO 30005KT 8SM FEW027 10/09 A3023 RMK AO1 SLP242
SPECI CYNL 050046Z AUTO 32007KT 4SM FEW017 SCT037 11/09 A3023 RMK AO1 SLP243
SPECI CYNL 050044Z AUTO 31008KT 2 1/2SM FEW027 SCT037 11/09 A3023 RMK AO1 SLP244
SPECI CYNL 050015Z AUTO 32007G26KT 3SM VV030 10/09 A3023 RMK AO1 WSHFT (00)05 SLP244
SPECI CYNL 050013Z AUTO 33008G26KT 2 1/2SM VV029 11/09 A3023 RMK AO1 WSHFT (00)05 SLP244
SPECI CYNL 050012Z AUTO 33010G26KT 1 1/2SM SCT025 BKN047 11/09 A3023 RMK AO1 WSHFT (00)05 SLP243
SPECI CYNL 050011Z AUTO 34011G26KT 1SM SCT025 BKN049 11/09 A3023 RMK AO1 WSHFT (00)05 SLP243
SPECI CYNL 050009Z AUTO 32018G26KT 290V350 1/2SM SCT024 11/09 A3023 RMK AO1 WSHFT (00)05 SLP243
SPECI CYNL 050007Z AUTO 32016G24KT 290V350 1 3/4SM SCT026 12/09 A3023 RMK AO1 WSHFT (00)05 SLP241
SPECI CYNL 050005Z AUTO 33012G19KT 9SM FEW027 SCT049 13/08 A3023 RMK AO1 WSHFT (00)05 SLP241
METAR CYNL 050000Z AUTO 29011G17KT 9SM FEW029 13/08 A3022 RMK AO1 SLP237
METAR CYNL 042300Z AUTO 31007G17KT 9SM FEW024 14/08 A3021 RMK AO1 SLP234
METAR CYNL 042200Z AUTO 31008G15KT 9SM FEW034 13/08 A3020 RMK AO1 SLP234
METAR CYNL 042100Z AUTO 32008G17KT 9SM FEW030 BKN043 13/06 A3019 RMK AO1 SLP231
METAR CYNL 042000Z AUTO 32011G17KT 9SM FEW026 SCT047 13/06 A3018 RMK AO1 SLP228
METAR CYNL 041900Z AUTO 31006G17KT 9SM SCT027 BKN038 12/07 A3017 RMK AO1 SLP225
SPECI CYNL 041858Z AUTO 32008G17KT 9SM SCT027 BKN037 12/07 A3017 RMK AO1 SLP223
SPECI CYNL 041855Z AUTO 31007G19KT 9SM BKN026 12/07 A3017 RMK AO1 SLP223
SPECI CYNL 041854Z AUTO 31006G19KT 9SM SCT026 BKN031 12/07 A3017 RMK AO1 SLP223
SPECI CYNL 041851Z AUTO 30012G19KT 9SM BKN027 13/07 A3017 RMK AO1 SLP222
METAR CYNL 041800Z AUTO 30012G18KT 9SM FEW014 SCT025 BKN039 11/07 A3017 RMK AO1 SLP223
SPECI CYNL 041747Z AUTO 31007G16KT 9SM FEW014 SCT021 BKN030 11/08 A3017 RMK AO1 SLP223
SPECI CYNL 041742Z AUTO 32009G16KT 8SM FEW014 BKN028 BKN038 11/08 A3017 RMK AO1 SLP223
SPECI CYNL 041735Z AUTO 31006G16KT 9SM FEW012 SCT027 BKN037 11/08 A3017 RMK AO1 SLP223
SPECI CYNL 041731Z AUTO 31009G16KT 9SM FEW013 BKN028 BKN150 11/08 A3017 RMK AO1 SLP223
SPECI CYNL 041730Z AUTO 30009G16KT 9SM FEW013 SCT024 BKN031 11/08 A3017 RMK AO1 SLP223
SPECI CYNL 041729Z AUTO 31010G16KT 9SM FEW013 BKN026 11/08 A3017 RMK AO1 SLP222
SPECI CYNL 041728Z AUTO 31009G17KT 9SM FEW013 SCT026 BKN032 11/08 A3017 RMK AO1 SLP222
SPECI CYNL 041717Z AUTO 30010G17KT 9SM SCT011 OVC025 10/08 A3017 RMK AO1 SLP223
SPECI CYNL 041706Z AUTO 30010G16KT 9SM SCT011 BKN015 BKN021 10/08 A3016 RMK AO1 SLP222
METAR CYNL 041700Z AUTO 30011G17KT 7SM BKN011 OVC015 10/08 A3016 RMK AO1 SLP221
METAR CYNL 041600Z AUTO 30010G17KT 9SM OVC010 10/08 A3015 RMK AO1 SLP217
METAR CYNL 041500Z AUTO 30013G18KT 9SM BKN011 BKN014 OVC016 11/08 A3014 RMK AO1 SLP212
SPECI CYNL 041454Z AUTO 31007KT 9SM BKN011 BKN015 OVC066 11/08 A3014 RMK AO1 SLP211
SPECI CYNL 041449Z AUTO 32009KT 9SM SCT011 BKN015 BKN018 11/08 A3013 RMK AO1 SLP210
SPECI CYNL 041438Z AUTO 31009KT 9SM BKN011 BKN018 11/09 A3013 RMK AO1 SLP209
SPECI CYNL 041433Z AUTO 31007G16KT 9SM SCT010 BKN017 BKN066 11/09 A3013 RMK AO1 SLP208
SPECI CYNL 041432Z AUTO 30007G16KT 9SM SCT010 BKN013 BKN024 11/09 A3013 RMK AO1 SLP208
SPECI CYNL 041429Z AUTO 31010G16KT 9SM SCT011 BKN018 BKN066 11/08 A3013 RMK AO1 SLP208
SPECI CYNL 041413Z AUTO 31007G15KT 9SM SCT009 BKN012 BKN015 11/09 A3012 RMK AO1 SLP207
METAR CYNL 041400Z AUTO 30007KT 9SM BKN008 BKN011 11/09 A3012 RMK AO1 SLP207
SPECI CYNL 041313Z AUTO 31007KT 9SM BKN008 OVC021 10/09 A3012 RMK AO1 SLP204
SPECI CYNL 041308Z AUTO 32007KT 9SM SCT008 BKN012 BKN021 10/08 A3011 RMK AO1 SLP204
METAR CYNL 041300Z AUTO 31005KT 9SM SCT008 BKN020 10/08 A3011 RMK AO1 SLP203
SPECI CYNL 041259Z AUTO 31006KT 9SM SCT007 BKN020 10/08 A3011 RMK AO1 SLP202
SPECI CYNL 041257Z AUTO 31006KT 9SM SCT008 BKN014 10/08 A3011 RMK AO1 SLP202
SPECI CYNL 041256Z AUTO 30007KT 9SM BKN008 09/08 A3011 RMK AO1 SLP202
SPECI CYNL 041254Z AUTO 31007KT 9SM SCT008 BKN010 09/08 A3011 RMK AO1 SLP202
SPECI CYNL 041251Z AUTO 30008KT 9SM BKN008 09/08 A3011 RMK AO1 SLP202
SPECI CYNL 041226Z AUTO 31006KT 9SM FEW009 BKN064 09/08 A3010 RMK AO1 SLP199
METAR CYNL 041200Z AUTO 30008KT 9SM SCT011 OVC060 09/07 A3010 RMK AO1 SLP199
SPECI CYNL 041135Z AUTO 31005KT 9SM SCT025 OVC060 09/05 A3010 RMK AO1 SLP195
SPECI CYNL 041116Z AUTO 32007KT 9SM BKN025 BKN030 09/05 A3009 RMK AO1 SLP195
SPECI CYNL 041109Z AUTO 32006KT 9SM BKN024 08/04 A3009 RMK AO1 SLP195
METAR CYNL 041100Z AUTO 32005KT 9SM FEW025 SCT054 08/04 A3009 RMK AO1 SLP195
METAR CYNL 041000Z AUTO 32007KT 9SM CLR 08/04 A3008 RMK AO1 SLP191
METAR CYNL 040900Z AUTO 31007KT 9SM CLR 07/04 A3006 RMK AO1 SLP185
METAR CYNL 040800Z AUTO 32006KT 9SM CLR 08/05 A3004 RMK AO1 PRESRR SLP179
METAR CYNL 040700Z AUTO 33008KT 9SM SCT100 09/05 A3002 RMK AO1 PRESRR SLP169
METAR CYNL 040600Z AUTO 34010KT 9SM SCT080 BKN098 10/06 A2999 RMK AO1 SLP162
METAR CYNL 040500Z AUTO 33007KT 9SM FEW072 BKN094 10/07 A2998 RMK AO1 SLP155
METAR CYNL 040400Z AUTO 33007KT 9SM OVC094 10/07 A2996 RMK AO1 SLP151
METAR CYNL 040300Z AUTO 33006KT 9SM OVC096 10/07 A2995 RMK AO1 PRESRR SLP147
METAR CYNL 040200Z AUTO 34006KT 9SM OVC096 11/08 A2993 RMK AO1 SLP139
METAR CYNL 040100Z AUTO 32011G17KT 9SM FEW037 BKN084 12/07 A2992 RMK AO1 SLP134
METAR CYNL 040000Z AUTO 34006KT 9SM SCT024 BKN033 14/08 A2990 RMK AO1 SLP127
SPECI CYNL 032355Z AUTO 33009KT 9SM SCT024 BKN032 14/08 A2990 RMK AO1 SLP127
SPECI CYNL 032350Z AUTO 34009KT 9SM BKN024 14/08 A2990 RMK AO1 SLP126
SPECI CYNL 032345Z AUTO 32008KT 9SM SCT025 BKN031 14/08 A2990 RMK AO1 SLP127
SPECI CYNL 032344Z AUTO 32008KT 9SM BKN027 14/08 A2990 RMK AO1 SLP127
METAR CYNL 032300Z AUTO 32012G17KT 9SM FEW031 13/08 A2989 RMK AO1 SLP125
METAR CYNL 032200Z AUTO 33014KT 9SM FEW024 SCT064 14/09 A2988 RMK AO1 SLP118
METAR CYNL 032100Z AUTO 34007KT 9SM FEW021 14/10 A2987 RMK AO1 SLP116
METAR CYNL 032000Z AUTO 33004KT 9SM FEW052 12/11 A2986 RMK AO1 SLP115
SPECI CYNL 031917Z AUTO 00007KT 4SM FEW010 SCT022 BKN036 12/11 A2985 RMK AO1 SLP113
SPECI CYNL 031916Z AUTO 00006KT 3SM VV025 12/11 A2985 RMK AO1 SLP113
SPECI CYNL 031915Z AUTO 01006KT 2 1/2SM VV028 12/11 A2985 RMK AO1 SLP113